Have a Safe July 4th! 

Flight Track Log - Related Links

Times and Time Zones

All times are in EST time to prevent confusion due to time zone crossing. See the AFL150 flight status page for this flight to view local times or setup timezone preferences in your user account.

Time Position Orientation Groundspeed Altitude Reporting Facility
EST Latitude Longitude Course Direction KTS MPH feet Rate Location/Type
Sun 04:50:55 AM 55.9610 37.3450 256° West 158 182 2,700  Level FlightAware ADS-B
Sun 04:51:35 AM 55.9530 37.2900 255° West 198 228 3,200 960 Climbing FlightAware ADS-B
Sun 04:52:10 AM 55.9440 37.2270 256° West 241 277 3,900 1,950 Climbing FlightAware ADS-B
Sun 04:52:55 AM 55.9510 37.1360 278° West 253 291 5,800 2,560 Climbing FlightAware ADS-B
Sun 04:53:25 AM 55.9580 37.0760 282° West 256 295 7,100 2,571 Climbing FlightAware ADS-B
Sun 04:54:05 AM 55.9660 36.9930 280° West 257 296 8,800 2,400 Climbing FlightAware ADS-B
Sun 04:54:50 AM 55.9750 36.8980 280° West 266 306 10,500 1,624 Climbing FlightAware ADS-B
Sun 04:55:30 AM 55.9830 36.8030 279° West 306 352 11,100 975 Climbing FlightAware ADS-B
Sun 04:56:10 AM 56.0100 36.7080 297° West 348 400 11,800 1,553 Climbing FlightAware ADS-B
Sun 04:56:55 AM 56.0450 36.5910 298° West 361 415 13,300 2,100 Climbing FlightAware ADS-B
Sun 04:57:50 AM 56.1030 36.4580 308° West 389 448 15,300 2,133 Climbing FlightAware ADS-B
Sun 04:58:25 AM 56.1600 36.4070 334° Northwest 398 458 16,500 1,886 Climbing FlightAware ADS-B
Sun 04:59:00 AM 56.2070 36.3350 320° Northwest 390 449 17,500 1,725 Climbing FlightAware ADS-B
Sun 04:59:45 AM 56.2650 36.2320 315° West 402 463 18,800 1,800 Climbing FlightAware ADS-B
Sun 05:00:20 AM 56.3140 36.1460 316° Northwest 408 470 19,900 1,800 Climbing FlightAware ADS-B
Sun 05:00:55 AM 56.3610 36.0630 316° Northwest 411 473 20,900 1,600 Climbing FlightAware ADS-B
Sun 05:01:35 AM 56.4140 35.9680 315° West 417 480 21,900 1,543 Climbing FlightAware ADS-B
Sun 05:02:05 AM 56.4560 35.8930 315° West 423 487 22,700 1,516 Climbing FlightAware ADS-B
Sun 05:03:10 AM 56.5480 35.7290 316° Northwest 431 496 24,300 1,446 Climbing FlightAware ADS-B
Sun 05:03:57 AM 56.6120 35.6140 315° West 434 499 25,400 1,367 Climbing FlightAware ADS-B
Sun 05:04:29 AM 56.6580 35.5310 315° West 437 503 26,100 1,250 Climbing FlightAware ADS-B
Sun 05:05:09 AM 56.7170 35.4240 315° West 440 506 26,900 1,125 Climbing FlightAware ADS-B
Sun 05:05:49 AM 56.7750 35.3190 315° West 444 511 27,600 1,083 Climbing FlightAware ADS-B
Sun 05:06:21 AM 56.8200 35.2360 315° West 449 517 28,200 1,059 Climbing FlightAware ADS-B
Sun 05:06:57 AM 56.8700 35.1440 315° West 451 519 28,800 947 Climbing FlightAware ADS-B
Sun 05:07:37 AM 56.9300 35.0350 315° West 454 522 29,400 1,000 Climbing FlightAware ADS-B
Sun 05:08:09 AM 56.9790 34.9430 314° West 454 522 30,000 1,219 Climbing FlightAware ADS-B
Sun 05:08:41 AM 57.0260 34.8560 315° West 450 518 30,700 1,268 Climbing FlightAware ADS-B
Sun 05:09:20 AM 57.0790 34.7570 315° West 446 513 31,500 1,050 Climbing FlightAware ADS-B
Sun 05:10:01 AM 57.1420 34.6380 314° West 446 513 32,100 815 Climbing FlightAware ADS-B
Sun 05:10:41 AM 57.2000 34.5290 315° West 449 517 32,600 857 Climbing FlightAware ADS-B
Sun 05:11:11 AM 57.2440 34.4450 314° West 449 517 33,100 960 Climbing FlightAware ADS-B
Sun 05:11:31 AM 57.2730 34.3900 314° West 447 514 33,400 1,000 Climbing FlightAware ADS-B
Sun 05:12:23 AM 57.3320 34.2790 315° West 442 509 34,300 1,030 Climbing FlightAware ADS-B
Sun 05:13:10 AM 57.3940 34.1590 314° West 432 497 35,100 1,047 Climbing FlightAware ADS-B
Sun 05:13:49 AM 57.4610 34.0300 314° West 429 494 35,800 667 Climbing FlightAware ADS-B
Sun 05:14:31 AM 57.5230 33.9100 314° West 430 495 36,000 103 Climbing FlightAware ADS-B
Sun 05:15:46 AM 57.6250 33.7110 314° West 420 483 36,000  Level FlightAware ADS-B
Sun 05:16:31 AM 57.6850 33.5940 314° West 422 486 36,000  Level FlightAware ADS-B
Sun 05:17:11 AM 57.7390 33.4900 314° West 429 494 36,000  Level FlightAware ADS-B
Sun 05:17:51 AM 57.8060 33.4010 325° Northwest 444 511 36,000  Level FlightAware ADS-B
Sun 05:18:26 AM 57.8660 33.3270 327° Northwest 443 510 36,000  Level FlightAware ADS-B
Sun 05:19:06 AM 57.9300 33.2450 326° Northwest 442 509 36,000  Level FlightAware ADS-B
Sun 05:19:41 AM 57.9910 33.1660 326° Northwest 443 510 36,000  Level FlightAware ADS-B
Sun 05:20:12 AM 58.0430 33.1000 326° Northwest 444 511 36,000  Level FlightAware ADS-B
Sun 05:20:46 AM 58.0980 33.0270 325° Northwest 444 511 36,000  Level FlightAware ADS-B
Sun 05:21:35 AM 58.1800 32.9190 325° Northwest 446 513 36,000  Level FlightAware ADS-B
Sun 05:22:26 AM 58.2680 32.8050 326° Northwest 444 511 36,000  Level FlightAware ADS-B
Sun 05:22:55 AM 58.3150 32.7420 325° Northwest 445 512 36,000  Level FlightAware ADS-B
Sun 05:23:36 AM 58.3850 32.6490 325° Northwest 446 513 36,000  Level FlightAware ADS-B
Sun 05:24:06 AM 58.4350 32.5820 325° Northwest 448 516 36,000  Level FlightAware ADS-B
Sun 05:24:55 AM 58.5200 32.4680 325° Northwest 450 518 36,000  Level FlightAware ADS-B
Sun 05:25:31 AM 58.5770 32.3910 325° Northwest 450 518 36,000  Level FlightAware ADS-B
Sun 05:26:00 AM 58.6310 32.3180 325° Northwest 450 518 36,000  Level FlightAware ADS-B
Sun 05:26:41 AM 58.6990 32.2260 325° Northwest 451 519 36,000  Level FlightAware ADS-B
Sun 05:27:41 AM 58.8020 32.0850 325° Northwest 453 521 36,000  Level FlightAware ADS-B
Sun 05:28:45 AM 58.9110 31.9350 325° Northwest 455 524 36,000  Level FlightAware ADS-B
Sun 05:29:20 AM 58.9720 31.8490 324° Northwest 455 524 36,000  Level FlightAware ADS-B
Sun 05:30:35 AM 59.0790 31.6450 316° Northwest 435 501 36,000  Level FlightAware ADS-B
Sun 05:31:16 AM 59.1240 31.5220 306° West 425 489 36,000  Level FlightAware ADS-B
Sun 05:31:46 AM 59.1520 31.4180 298° West 416 479 36,000  Level FlightAware ADS-B
Sun 05:32:17 AM 59.1740 31.3170 293° West 410 472 36,000  Level FlightAware ADS-B
Sun 05:32:47 AM 59.1910 31.2140 288° West 407 468 36,000  Level FlightAware ADS-B
Sun 05:33:20 AM 59.2130 31.0880 289° West 407 468 36,000  Level FlightAware ADS-B
Sun 05:34:00 AM 59.2360 30.9500 288° West 410 472 36,000  Level FlightAware ADS-B
Sun 05:34:40 AM 59.2600 30.8100 289° West 411 473 36,000  Level FlightAware ADS-B
Sun 05:35:35 AM 59.2920 30.6170 288° West 413 475 36,000  Level FlightAware ADS-B
Sun 05:36:06 AM 59.3090 30.5110 287° West 415 478 36,000  Level FlightAware ADS-B
Sun 05:36:50 AM 59.3360 30.3460 288° West 417 480 36,000  Level FlightAware ADS-B
Sun 05:37:36 AM 59.3610 30.1890 287° West 417 480 36,000  Level FlightAware ADS-B
Sun 05:38:00 AM 59.3760 30.0980 288° West 417 480 36,000  Level FlightAware ADS-B
Sun 05:38:46 AM 59.4020 29.9370 288° West 416 479 36,000  Level FlightAware ADS-B
Sun 05:39:20 AM 59.4210 29.8140 287° West 415 478 36,000  Level FlightAware ADS-B
Sun 05:39:55 AM 59.4410 29.6900 288° West 415 478 36,000  Level FlightAware ADS-B
Sun 05:40:35 AM 59.4660 29.5480 289° West 421 484 36,000  Level FlightAware ADS-B
Sun 05:41:16 AM 59.4950 29.3980 291° West 423 487 36,000  Level FlightAware ADS-B
Sun 05:41:45 AM 59.5150 29.2920 290° West 423 487 36,000  Level FlightAware ADS-B
Sun 05:42:20 AM 59.5400 29.1640 291° West 424 488 36,000  Level FlightAware ADS-B
Sun 05:43:00 AM 59.5660 29.0260 290° West 424 488 36,000  Level FlightAware ADS-B
Sun 05:43:35 AM 59.5900 28.8950 290° West 423 487 36,000  Level FlightAware ADS-B
Sun 05:44:35 AM 59.6250 28.6880 289° West 422 486 36,000  Level FlightAware ADS-B
Sun 05:45:41 AM 59.6630 28.4320 286° West 427 491 36,000  Level FlightAware ADS-B
Sun 05:46:16 AM 59.6800 28.3120 286° West 426 490 36,000  Level FlightAware ADS-B
Sun 05:46:58 AM 59.7050 28.1420 286° West 426 490 36,000  Level FlightAware ADS-B
Sun 05:47:30 AM 59.7210 28.0230 285° West 425 489 36,000  Level FlightAware ADS-B
Sun 05:48:04 AM 59.7390 27.8980 286° West 427 491 36,000  Level FlightAware ADS-B
Sun 05:48:40 AM 59.7580 27.7590 285° West 428 493 36,000  Level FlightAware ADS-B
Sun 05:49:08 AM 59.7730 27.6510 285° West 429 494 36,000  Level FlightAware ADS-B
Sun 05:49:58 AM 59.7990 27.4640 286° West 427 491 36,000  Level FlightAware ADS-B
Sun 05:50:38 AM 59.8180 27.3210 285° West 426 490 36,000  Level FlightAware ADS-B
Sun 05:51:42 AM 59.8510 27.0730 285° West 425 489 36,000  Level FlightAware ADS-B
Sun 05:52:24 AM 59.8720 26.9160 285° West 426 490 36,000  Level FlightAware ADS-B
Sun 05:53:06 AM 59.8940 26.7490 285° West 426 490 36,000  Level FlightAware ADS-B
Sun 05:53:44 AM 59.9130 26.6040 285° West 427 491 36,000  Level FlightAware ADS-B
Sun 05:54:20 AM 59.9300 26.4720 284° West 429 494 36,000  Level FlightAware ADS-B
Sun 05:55:02 AM 59.9570 26.3180 289° West 434 499 36,000  Level FlightAware ADS-B
Sun 05:55:30 AM 59.9820 26.2140 296° West 438 504 36,000  Level FlightAware ADS-B
Sun 05:56:06 AM 60.0200 26.0860 301° West 444 511 36,000  Level FlightAware ADS-B
Sun 05:56:40 AM 60.0610 25.9810 308° West 452 520 36,000  Level FlightAware ADS-B
Sun 05:57:24 AM 60.1360 25.8580 321° Northwest 465 535 36,000  Level FlightAware ADS-B
Sun 05:58:00 AM 60.1970 25.7680 324° Northwest 465 535 36,000  Level FlightAware ADS-B
Sun 05:58:44 AM 60.2720 25.6570 324° Northwest 465 535 36,000  Level FlightAware ADS-B
Sun 05:59:16 AM 60.3280 25.5730 323° Northwest 468 539 36,000  Level FlightAware ADS-B
Sun 05:59:58 AM 60.4020 25.4600 323° Northwest 469 540 36,000  Level FlightAware ADS-B
Sun 06:00:34 AM 60.4620 25.3690 323° Northwest 468 539 36,000  Level FlightAware ADS-B
Sun 06:01:06 AM 60.5170 25.2850 323° Northwest 469 540 36,000  Level FlightAware ADS-B
Sun 06:01:42 AM 60.5820 25.1840 323° Northwest 470 541 36,000  Level FlightAware ADS-B
Sun 06:02:48 AM 60.6940 25.0120 323° Northwest 471 542 36,000  Level FlightAware ADS-B
Sun 06:03:30 AM 60.7690 24.8940 322° Northwest 473 544 36,000  Level FlightAware ADS-B
Sun 06:04:11 AM 60.8400 24.7830 323° Northwest 474 545 36,000  Level FlightAware ADS-B
Sun 06:04:43 AM 60.8950 24.6960 322° Northwest 472 543 36,000  Level FlightAware ADS-B
Sun 06:05:13 AM 60.9470 24.6130 322° Northwest 469 540 36,000  Level FlightAware ADS-B
Sun 06:05:50 AM 61.0090 24.5140 322° Northwest 469 540 36,000  Level FlightAware ADS-B
Sun 06:06:23 AM 61.0630 24.4280 322° Northwest 470 541 36,000  Level FlightAware ADS-B
Sun 06:06:55 AM 61.1220 24.3330 322° Northwest 470 541 36,000  Level FlightAware ADS-B
Sun 06:07:34 AM 61.1890 24.2250 322° Northwest 468 539 36,000  Level FlightAware ADS-B
Sun 06:08:11 AM 61.2510 24.1240 322° Northwest 467 537 36,000  Level FlightAware ADS-B
Sun 06:08:46 AM 61.3090 24.0290 322° Northwest 469 540 36,000  Level FlightAware ADS-B
Sun 06:09:27 AM 61.3810 23.9110 322° Northwest 471 542 36,000  Level FlightAware ADS-B
Sun 06:10:29 AM 61.4870 23.7360 322° Northwest 473 544 36,000  Level FlightAware ADS-B
Sun 06:11:09 AM 61.5550 23.6230 322° Northwest 472 543 36,000  Level FlightAware ADS-B
Sun 06:11:33 AM 61.5960 23.5540 321° Northwest 471 542 36,000  Level FlightAware ADS-B
Sun 06:12:49 AM 61.7230 23.3390 321° Northwest 469 540 36,000  Level FlightAware ADS-B
Sun 06:13:25 AM 61.7810 23.2410 321° Northwest 467 537 36,000  Level FlightAware ADS-B
Sun 06:14:02 AM 61.8460 23.1310 321° Northwest 467 537 36,000  Level FlightAware ADS-B
Sun 06:14:39 AM 61.9080 23.0240 321° Northwest 468 539 36,000  Level FlightAware ADS-B
Sun 06:15:18 AM 61.9730 22.9110 321° Northwest 469 540 36,000  Level FlightAware ADS-B
Sun 06:16:01 AM 62.0450 22.7860 321° Northwest 468 539 36,000  Level FlightAware ADS-B
Sun 06:17:02 AM 62.1460 22.6100 321° Northwest 467 537 36,000  Level FlightAware ADS-B
Sun 06:17:38 AM 62.2040 22.5080 321° Northwest 465 535 36,000  Level FlightAware ADS-B
Sun 06:18:13 AM 62.2610 22.4050 320° Northwest 465 535 36,000  Level FlightAware ADS-B
Sun 06:19:08 AM 62.3560 22.2370 321° Northwest 465 535 36,000  Level FlightAware ADS-B
Sun 06:19:46 AM 62.4180 22.1240 320° Northwest 465 535 36,000  Level FlightAware ADS-B
Sun 06:20:26 AM 62.4830 22.0080 321° Northwest 463 533 36,000  Level FlightAware ADS-B
Sun 06:21:09 AM 62.5520 21.8810 320° Northwest 461 531 36,000  Level FlightAware ADS-B
Sun 06:21:46 AM 62.6110 21.7740 320° Northwest 461 531 36,000  Level FlightAware ADS-B
Sun 06:22:25 AM 62.6770 21.6520 320° Northwest 461 531 36,000  Level FlightAware ADS-B
Sun 06:23:05 AM 62.7430 21.5310 320° Northwest 462 532 36,000  Level FlightAware ADS-B
Sun 06:24:11 AM 62.8470 21.3370 320° Northwest 464 534 36,000  Level FlightAware ADS-B
Sun 06:24:35 AM 62.8870 21.2620 319° Northwest 465 535 36,000  Level FlightAware ADS-B
Sun 06:25:23 AM 62.9650 21.1150 319° Northwest 464 534 36,000  Level FlightAware ADS-B
Sun 06:26:01 AM 63.0290 20.9930 319° Northwest 465 535 36,000  Level FlightAware ADS-B
Sun 06:26:34 AM 63.0810 20.8940 319° Northwest 464 534 36,000  Level FlightAware ADS-B
Sun 06:27:10 AM 63.1360 20.7870 319° Northwest 464 534 36,000  Level FlightAware ADS-B
Sun 06:28:14 AM 63.2400 20.5850 319° Northwest 463 533 36,000  Level FlightAware ADS-B
Sun 06:29:08 AM 63.3270 20.4150 319° Northwest 461 531 36,000  Level FlightAware ADS-B
Sun 06:29:53 AM 63.4010 20.2700 319° Northwest 463 533 36,000  Level FlightAware ADS-B
Sun 06:30:39 AM 63.4730 20.1260 318° Northwest 463 533 36,000  Level FlightAware ADS-B
Sun 06:31:06 AM 63.5180 20.0380 319° Northwest 463 533 36,000  Level FlightAware ADS-B
Sun 06:31:48 AM 63.5750 19.9230 318° Northwest 465 535 36,000  Level FlightAware ADS-B
Sun 06:33:00 AM 63.6990 19.6730 318° Northwest 463 533 36,000  Level FlightAware ADS-B
Sun 06:33:37 AM 63.7560 19.5560 318° Northwest 465 535 36,000  Level FlightAware ADS-B
Sun 06:34:20 AM 63.8250 19.4150 318° Northwest 465 535 36,000  Level FlightAware ADS-B
Sun 06:34:56 AM 63.8820 19.2960 317° Northwest 466 536 36,000  Level FlightAware ADS-B
Sun 06:35:36 AM 63.9450 19.1660 318° Northwest 466 536 36,000  Level FlightAware ADS-B
Sun 06:36:16 AM 64.0090 19.0310 317° Northwest 463 533 36,000  Level FlightAware ADS-B
Sun 06:36:48 AM 64.0590 18.9260 317° Northwest 462 532 36,000  Level FlightAware ADS-B
Sun 06:37:29 AM 64.1220 18.7930 317° Northwest 459 528 36,000  Level FlightAware ADS-B
Sun 06:37:56 AM 64.1630 18.7050 317° Northwest 458 527 36,000  Level FlightAware ADS-B
Sun 06:38:42 AM 64.2360 18.5500 317° Northwest 457 526 36,000  Level FlightAware ADS-B
Sun 06:39:18 AM 64.2910 18.4310 317° Northwest 457 526 36,000  Level FlightAware ADS-B
Sun 06:39:58 AM 64.3530 18.2970 317° Northwest 458 527 36,000  Level FlightAware ADS-B
Sun 06:40:26 AM 64.3950 18.2040 316° Northwest 459 528 36,000  Level FlightAware ADS-B
Sun 06:41:04 AM 64.4550 18.0740 317° Northwest 461 531 36,000  Level FlightAware ADS-B
Sun 06:41:44 AM 64.5150 17.9420 317° Northwest 461 531 36,000  Level FlightAware ADS-B
Sun 06:42:20 AM 64.5700 17.8200 316° Northwest 461 531 36,000  Level FlightAware ADS-B
Sun 06:42:57 AM 64.6270 17.6920 316° Northwest 455 524 36,000  Level FlightAware ADS-B
Sun 06:44:03 AM 64.7280 17.4640 316° Northwest 454 522 36,000  Level FlightAware ADS-B
Sun 06:44:39 AM 64.7810 17.3450 316° Northwest 454 522 36,000  Level FlightAware ADS-B
Sun 06:45:18 AM 64.8410 17.2070 316° Northwest 453 521 36,000  Level FlightAware ADS-B
Sun 06:45:52 AM 64.8930 17.0870 316° Northwest 453 521 36,000  Level FlightAware ADS-B
Sun 06:46:40 AM 64.9620 16.9270 316° Northwest 454 522 36,000  Level FlightAware ADS-B
Sun 06:47:18 AM 65.0230 16.7870 316° Northwest 454 522 36,000  Level FlightAware ADS-B
Sun 06:47:53 AM 65.0760 16.6610 315° West 455 524 36,000  Level FlightAware ADS-B
Sun 06:48:28 AM 65.1290 16.5370 315° West 456 525 36,000  Level FlightAware ADS-B
Sun 06:48:58 AM 65.1740 16.4300 315° West 456 525 36,000  Level FlightAware ADS-B
Sun 06:49:28 AM 65.2190 16.3230 315° West 461 531 36,000  Level FlightAware ADS-B
Sun 06:49:58 AM 65.2650 16.2120 315° West 462 532 36,000  Level FlightAware ADS-B
Sun 06:50:33 AM 65.3160 16.0880 315° West 461 531 36,000  Level FlightAware ADS-B
Sun 06:51:17 AM 65.3820 15.9270 315° West 460 529 36,000  Level FlightAware ADS-B
Sun 06:51:47 AM 65.4270 15.8180 315° West 458 527 36,000  Level FlightAware ADS-B
Sun 06:52:27 AM 65.4860 15.6740 315° West 456 525 36,000  Level FlightAware ADS-B
Sun 06:53:02 AM 65.5380 15.5450 314° West 450 518 36,000  Level FlightAware ADS-B
Sun 06:53:47 AM 65.6040 15.3810 314° West 449 517 36,000  Level FlightAware ADS-B
Sun 06:54:22 AM 65.6550 15.2520 314° West 449 517 36,000  Level FlightAware ADS-B
Sun 06:55:03 AM 65.7120 15.1100 314° West 450 518 36,000  Level FlightAware ADS-B
Sun 06:55:43 AM 65.7700 14.9620 314° West 446 513 36,000  Level FlightAware ADS-B
Sun 06:56:08 AM 65.8070 14.8670 314° West 445 512 36,000  Level FlightAware ADS-B
Sun 06:56:48 AM 65.8640 14.7210 314° West 452 520 36,000  Level FlightAware ADS-B
Sun 06:57:28 AM 65.9210 14.5720 313° West 450 518 36,000  Level FlightAware ADS-B
Sun 06:58:03 AM 65.9710 14.4420 313° West 451 519 36,000  Level FlightAware ADS-B
Sun 06:58:38 AM 66.0210 14.3110 313° West 449 517 36,000  Level FlightAware ADS-B
Sun 06:59:18 AM 66.0790 14.1590 313° West 451 519 36,000  Level FlightAware ADS-B
Sun 06:59:58 AM 66.1360 14.0070 313° West 456 525 36,000  Level FlightAware ADS-B
Sun 07:00:38 AM 66.1930 13.8550 313° West 455 524 36,000  Level FlightAware ADS-B
Sun 07:01:08 AM 66.2350 13.7420 313° West 454 522 36,000  Level FlightAware ADS-B
Sun 07:01:40 AM 66.2810 13.6180 313° West 455 524 36,000  Level FlightAware ADS-B
Sun 07:02:23 AM 66.3410 13.4520 312° West 453 521 36,000  Level FlightAware ADS-B
Sun 07:03:03 AM 66.3950 13.3040 312° West 454 522 36,000  Level FlightAware ADS-B
Sun 07:03:26 AM 66.4280 13.2120 312° West 453 521 36,000  Level FlightAware ADS-B
Sun 07:04:22 AM 66.5060 12.9960 312° West 454 522 36,000  Level FlightAware ADS-B
Sun 07:05:04 AM 66.5650 12.8310 312° West 454 522 36,000  Level FlightAware ADS-B
Sun 07:05:44 AM 66.6200 12.6740 311° West 452 520 36,000  Level FlightAware ADS-B
Sun 07:06:17 AM 66.6670 12.5410 312° West 452 520 36,000  Level FlightAware ADS-B
Sun 07:06:49 AM 66.7120 12.4120 311° West 452 520 36,000  Level FlightAware ADS-B
Sun 07:07:19 AM 66.7530 12.2930 311° West 451 519 36,000  Level FlightAware ADS-B
Sun 07:07:52 AM 66.7970 12.1670 312° West 450 518 36,000  Level FlightAware ADS-B
Sun 07:08:55 AM 66.8820 11.9170 311° West 450 518 36,000  Level FlightAware ADS-B
Sun 07:09:47 AM 66.9540 11.7050 311° West 450 518 36,000  Level FlightAware ADS-B
Sun 07:10:22 AM 67.0000 11.5670 311° West 450 518 36,000  Level FlightAware ADS-B
Sun 07:11:03 AM 67.0560 11.3990 311° West 449 517 36,000  Level FlightAware ADS-B
Sun 07:11:40 AM 67.1000 11.2670 311° West 450 518 36,000  Level FlightAware ADS-B
Sun 07:12:19 AM 67.1580 11.0900 310° West 449 517 36,000  Level FlightAware ADS-B
Sun 07:13:00 AM 67.2140 10.9200 310° West 450 518 36,000  Level FlightAware ADS-B
Sun 07:13:35 AM 67.2590 10.7790 310° West 450 518 36,000  Level FlightAware ADS-B
Sun 07:14:12 AM 67.3080 10.6290 310° West 450 518 36,000  Level FlightAware ADS-B
Sun 07:14:55 AM 67.3660 10.4470 310° West 452 520 36,000  Level FlightAware ADS-B
Sun 07:15:10 AM 67.3830 10.3910 308° West 451 519 36,000  Level FlightAware ADS-B
Sun 07:16:12 AM 67.4530 10.1680 309° West 451 519 36,000  Level FlightAware ADS-B
Sun 07:17:00 AM 67.5060 9.9960 309° West 451 519 36,000  Level FlightAware ADS-B
Sun 07:17:36 AM 67.5460 9.8660 309° West 451 519 36,000  Level FlightAware ADS-B
Sun 07:18:01 AM 67.5740 9.7750 309° West 451 519 36,000  Level FlightAware ADS-B
Sun 07:19:14 AM 67.6560 9.5110 309° West 451 519 36,000  Level FlightAware ADS-B
Sun 07:19:50 AM 67.6960 9.3800 309° West 451 519 36,000  Level FlightAware ADS-B
Sun 07:20:26 AM 67.7360 9.2500 309° West 451 519 36,000  Level FlightAware ADS-B
Sun 07:21:00 AM 67.7740 9.1260 309° West 451 519 36,000  Level FlightAware ADS-B
Sun 07:21:36 AM 67.8140 8.9940 309° West 451 519 36,000  Level FlightAware ADS-B
Sun 07:22:37 AM 67.8820 8.7710 309° West 451 519 36,000  Level FlightAware ADS-B
Sun 07:23:25 AM 67.9360 8.5950 309° West 451 519 36,000  Level FlightAware ADS-B
Sun 07:23:49 AM 67.9620 8.5070 308° West 451 519 36,000  Level FlightAware ADS-B
Sun 07:24:26 AM 68.0040 8.3710 310° West 451 519 36,000  Level FlightAware ADS-B
Sun 07:25:02 AM 68.0440 8.2390 309° West 451 519 36,000 Level FlightAware ADS-B
Sun 07:28:00 AM 68.1009 7.2945 280° West  Level Estimated
Sun 07:29:00 AM 68.1188 6.9751 279° West  Level Estimated
Sun 07:30:00 AM 68.1362 6.6552 278° West  Level Estimated
Sun 07:31:00 AM 68.1529 6.3348 278° West  Level Estimated
Sun 07:32:00 AM 68.1690 6.0140 278° West  Level Estimated
Sun 07:33:00 AM 68.1845 5.6927 278° West  Level Estimated
Sun 07:34:00 AM 68.1993 5.3710 277° West  Level Estimated
Sun 07:35:00 AM 68.2136 5.0489 277° West  Level Estimated
Sun 07:36:00 AM 68.2272 4.7264 277° West  Level Estimated
Sun 07:37:00 AM 68.2402 4.4035 276° West  Level Estimated
Sun 07:38:00 AM 68.2525 4.0803 276° West  Level Estimated
Sun 07:39:00 AM 68.2643 3.7567 276° West  Level Estimated
Sun 07:40:00 AM 68.2754 3.4328 275° West  Level Estimated
Sun 07:41:00 AM 68.2858 3.1086 275° West  Level Estimated
Sun 07:42:00 AM 68.2957 2.7842 275° West  Level Estimated
Sun 07:43:00 AM 68.3049 2.4594 275° West  Level Estimated
Sun 07:44:00 AM 68.3135 2.1344 274° West  Level Estimated
Sun 07:45:00 AM 68.3214 1.8091 274° West  Level Estimated
Sun 07:46:00 AM 68.3287 1.4837 274° West  Level Estimated
Sun 07:47:00 AM 68.3354 1.1580 273° West  Level Estimated
Sun 07:48:00 AM 68.3414 0.8321 273° West  Level Estimated
Sun 07:49:00 AM 68.3468 0.5061 273° West  Level Estimated
Sun 07:50:00 AM 68.3516 0.1800 272° West  Level Estimated
Sun 07:51:00 AM 68.3557 -0.1463 272° West  Level Estimated
Sun 07:52:00 AM 68.3592 -0.4727 272° West  Level Estimated
Sun 07:53:00 AM 68.3620 -0.7992 272° West  Level Estimated
Sun 07:54:00 AM 68.3643 -1.1257 271° West  Level Estimated
Sun 07:55:00 AM 68.3658 -1.4523 271° West  Level Estimated
Sun 07:56:00 AM 68.3668 -1.7790 271° West  Level Estimated
Sun 07:57:00 AM 68.3671 -2.1057 270° West  Level Estimated
Sun 07:58:00 AM 68.3667 -2.4323 270° West  Level Estimated
Sun 07:59:00 AM 68.3658 -2.7590 270° West  Level Estimated
Sun 08:00:00 AM 68.3641 -3.0856 269° West  Level Estimated
Sun 08:01:00 AM 68.3619 -3.4121 269° West  Level Estimated
Sun 08:02:00 AM 68.3590 -3.7386 269° West  Level Estimated
Sun 08:03:00 AM 68.3555 -4.0650 268° West  Level Estimated
Sun 08:04:00 AM 68.3513 -4.3913 268° West  Level Estimated
Sun 08:05:00 AM 68.3465 -4.7174 268° West  Level Estimated
Sun 08:06:00 AM 68.3410 -5.0434 268° West  Level Estimated
Sun 08:07:00 AM 68.3350 -5.3693 267° West  Level Estimated
Sun 08:08:00 AM 68.3283 -5.6949 267° West  Level Estimated
Sun 08:09:00 AM 68.3209 -6.0204 267° West  Level Estimated
Sun 08:10:00 AM 68.3129 -6.3456 266° West  Level Estimated
Sun 08:11:00 AM 68.3043 -6.6706 266° West  Level Estimated
Sun 08:12:00 AM 68.2951 -6.9953 266° West  Level Estimated
Sun 08:13:00 AM 68.2852 -7.3198 265° West  Level Estimated
Sun 08:14:00 AM 68.2747 -7.6440 265° West  Level Estimated
Sun 08:15:00 AM 68.2635 -7.9679 265° West  Level Estimated
Sun 08:16:00 AM 68.2518 -8.2914 265° West  Level Estimated
Sun 08:17:00 AM 68.2394 -8.6146 264° West  Level Estimated
Sun 08:18:00 AM 68.2263 -8.9375 264° West  Level Estimated
Sun 08:19:00 AM 68.2127 -9.2599 264° West  Level Estimated
Sun 08:20:00 AM 68.1984 -9.5820 263° West  Level Estimated
Sun 08:21:00 AM 68.1835 -9.9037 263° West  Level Estimated
Sun 08:22:00 AM 68.1680 -10.2249 263° West  Level Estimated
Sun 08:23:00 AM 68.1519 -10.5457 262° West  Level Estimated
Sun 08:24:00 AM 68.1351 -10.8661 262° West  Level Estimated
Sun 08:25:00 AM 68.1177 -11.1859 262° West  Level Estimated
Sun 08:26:00 AM 68.0997 -11.5053 262° West  Level Estimated
Sun 08:27:00 AM 68.0811 -11.8242 261° West  Level Estimated
Sun 08:28:00 AM 68.0619 -12.1425 261° West  Level Estimated
Sun 08:29:00 AM 68.0421 -12.4603 261° West  Level Estimated
Sun 08:30:00 AM 68.0216 -12.7776 260° West  Level Estimated
Sun 08:31:00 AM 68.0006 -13.0942 260° West  Level Estimated
Sun 08:32:00 AM 67.9789 -13.4103 260° West  Level Estimated
Sun 08:33:00 AM 67.9566 -13.7259 259° West  Level Estimated
Sun 08:34:00 AM 67.9338 -14.0407 259° West  Level Estimated
Sun 08:35:00 AM 67.9103 -14.3550 259° West  Level Estimated
Sun 08:36:00 AM 67.8862 -14.6686 259° West  Level Estimated
Sun 08:37:00 AM 67.8616 -14.9816 258° West  Level Estimated
Sun 08:38:00 AM 67.8363 -15.2939 258° West  Level Estimated
Sun 08:39:00 AM 67.8104 -15.6055 258° West  Level Estimated
Sun 08:40:00 AM 67.7840 -15.9164 257° West  Level Estimated
Sun 08:41:00 AM 67.7570 -16.2266 257° West  Level Estimated
Sun 08:42:00 AM 67.7293 -16.5361 257° West  Level Estimated
Sun 08:43:00 AM 67.7011 -16.8448 257° West  Level Estimated
Sun 08:44:00 AM 67.6723 -17.1528 256° West  Level Estimated
Sun 08:45:00 AM 67.6430 -17.4601 256° West  Level Estimated
Sun 08:46:00 AM 67.6130 -17.7665 256° West  Level Estimated
Sun 08:47:00 AM 67.5825 -18.0722 255° West  Level Estimated
Sun 08:48:00 AM 67.5514 -18.3771 255° West  Level Estimated
Sun 08:49:00 AM 67.5197 -18.6812 255° West  Level Estimated
Sun 08:50:00 AM 67.4875 -18.9844 255° West  Level Estimated
Sun 08:51:00 AM 67.4547 -19.2868 254° West  Level Estimated
Sun 08:52:00 AM 67.4213 -19.5884 254° West  Level Estimated
Sun 08:53:00 AM 67.3874 -19.8892 254° West  Level Estimated
Sun 08:54:00 AM 67.3529 -20.1891 253° West  Level Estimated
Sun 08:55:00 AM 67.3178 -20.4881 253° West  Level Estimated
Sun 08:56:00 AM 67.2822 -20.7862 253° West  Level Estimated
Sun 08:57:00 AM 67.2461 -21.0834 253° West  Level Estimated
Sun 08:58:00 AM 67.2094 -21.3797 252° West  Level Estimated
Sun 08:59:00 AM 67.1721 -21.6752 252° West  Level Estimated
Sun 09:00:00 AM 67.1344 -21.9697 252° West  Level Estimated
Sun 09:01:00 AM 67.0960 -22.2633 252° West  Level Estimated
Sun 09:02:00 AM 67.0572 -22.5559 251° West  Level Estimated
Sun 09:03:00 AM 67.0178 -22.8476 251° West  Level Estimated
Sun 09:04:00 AM 66.9778 -23.1383 251° West  Level Estimated
Sun 09:05:00 AM 66.9374 -23.4281 251° West  Level Estimated
Sun 09:06:00 AM 66.8964 -23.7170 250° West  Level Estimated
Sun 09:07:00 AM 66.8549 -24.0048 250° West  Level Estimated
Sun 09:08:00 AM 66.8128 -24.2917 250° West  Level Estimated
Sun 09:09:00 AM 66.7703 -24.5776 249° West  Level Estimated
Sun 09:10:00 AM 66.7272 -24.8625 249° West  Level Estimated
Sun 09:11:00 AM 66.6836 -25.1464 249° West  Level Estimated
Sun 09:12:00 AM 66.6396 -25.4293 249° West  Level Estimated
Sun 09:13:00 AM 66.5950 -25.7111 248° West  Level Estimated
Sun 09:14:00 AM 66.5499 -25.9920 248° West  Level Estimated
Sun 09:15:00 AM 66.5043 -26.2719 248° West  Level Estimated
Sun 09:16:00 AM 66.4582 -26.5507 248° West  Level Estimated
Sun 09:17:00 AM 66.4116 -26.8284 247° West  Level Estimated
Sun 09:18:00 AM 66.3645 -27.1052 247° West  Level Estimated
Sun 09:19:00 AM 66.3169 -27.3809 247° West  Level Estimated
Sun 09:20:00 AM 66.2689 -27.6555 247° West  Level Estimated
Sun 09:21:00 AM 66.2203 -27.9291 246° West  Level Estimated
Sun 09:22:00 AM 66.1713 -28.2017 246° West  Level Estimated
Sun 09:23:00 AM 66.1218 -28.4731 246° West  Level Estimated
Sun 09:24:00 AM 66.0718 -28.7435 246° West  Level Estimated
Sun 09:25:00 AM 66.0214 -29.0129 245° Southwest  Level Estimated
Sun 09:26:00 AM 65.9705 -29.2812 245° Southwest  Level Estimated
Sun 09:27:00 AM 65.9191 -29.5484 245° Southwest  Level Estimated
Sun 09:28:00 AM 65.8673 -29.8145 245° Southwest  Level Estimated
Sun 09:29:00 AM 65.8150 -30.0796 244° Southwest  Level Estimated
Sun 09:30:00 AM 65.7622 -30.3436 244° Southwest  Level Estimated
Sun 09:31:00 AM 65.7090 -30.6065 244° Southwest  Level Estimated
Sun 09:32:00 AM 65.6553 -30.8683 244° Southwest  Level Estimated
Sun 09:33:00 AM 65.6012 -31.1290 243° Southwest  Level Estimated
Sun 09:34:00 AM 65.5467 -31.3887 243° Southwest  Level Estimated
Sun 09:35:00 AM 65.4917 -31.6472 243° Southwest  Level Estimated
Sun 09:36:00 AM 65.4363 -31.9047 243° Southwest  Level Estimated
Sun 09:37:00 AM 65.3804 -32.1610 242° Southwest  Level Estimated
Sun 09:38:00 AM 65.3241 -32.4163 242° Southwest  Level Estimated
Sun 09:39:00 AM 65.2674 -32.6705 242° Southwest  Level Estimated
Sun 09:40:00 AM 65.2102 -32.9236 242° Southwest  Level Estimated
Sun 09:41:00 AM 65.1526 -33.1756 242° Southwest  Level Estimated
Sun 09:42:00 AM 65.0946 -33.4265 241° Southwest  Level Estimated
Sun 09:43:00 AM 65.0362 -33.6763 241° Southwest  Level Estimated
Sun 09:44:00 AM 64.9774 -33.9250 241° Southwest  Level Estimated
Sun 09:45:00 AM 64.9181 -34.1726 241° Southwest  Level Estimated
Sun 09:46:00 AM 64.8585 -34.4191 240° Southwest  Level Estimated
Sun 09:47:00 AM 64.7984 -34.6645 240° Southwest  Level Estimated
Sun 09:48:00 AM 64.7380 -34.9088 240° Southwest  Level Estimated
Sun 09:49:00 AM 64.6771 -35.1521 240° Southwest  Level Estimated
Sun 09:50:00 AM 64.6158 -35.3942 240° Southwest  Level Estimated
Sun 09:51:00 AM 64.5542 -35.6352 239° Southwest  Level Estimated
Sun 09:52:00 AM 64.4921 -35.8752 239° Southwest  Level Estimated
Sun 09:53:00 AM 64.4297 -36.1140 239° Southwest  Level Estimated
Sun 09:54:00 AM 64.3669 -36.3518 239° Southwest  Level Estimated
Sun 09:55:00 AM 64.3036 -36.5885 238° Southwest  Level Estimated
Sun 09:56:00 AM 64.2401 -36.8241 238° Southwest  Level Estimated
Sun 09:57:00 AM 64.1761 -37.0586 238° Southwest  Level Estimated
Sun 09:58:00 AM 64.1118 -37.2920 238° Southwest  Level Estimated
Sun 09:59:00 AM 64.0471 -37.5244 238° Southwest  Level Estimated
Sun 10:00:00 AM 63.9820 -37.7557 237° Southwest  Level Estimated
Sun 10:01:00 AM 63.9165 -37.9859 237° Southwest  Level Estimated
Sun 10:02:00 AM 63.8507 -38.2150 237° Southwest  Level Estimated
Sun 10:03:00 AM 63.7845 -38.4430 237° Southwest  Level Estimated
Sun 10:04:00 AM 63.7180 -38.6700 237° Southwest  Level Estimated
Sun 10:05:00 AM 63.6511 -38.8959 236° Southwest  Level Estimated
Sun 10:06:00 AM 63.5839 -39.1208 236° Southwest  Level Estimated
Sun 10:07:00 AM 63.5163 -39.3446 236° Southwest  Level Estimated
Sun 10:08:00 AM 63.4484 -39.5673 236° Southwest  Level Estimated
Sun 10:09:00 AM 63.3801 -39.7890 236° Southwest  Level Estimated
Sun 10:10:00 AM 63.3115 -40.0096 235° Southwest  Level Estimated
Sun 10:10:59 AM 67.4320 -44.5160 235° Southwest 449 517 37,000  Level FlightAware ADS-B
Sun 10:11:00 AM 63.2425 -40.2291 235° Southwest  Level Estimated
Sun 10:11:52 AM 67.3530 -44.7200 225° Southwest 447 514 37,000  Level FlightAware ADS-B
Sun 10:12:00 AM 63.1732 -40.4476 235° Southwest  Level Estimated
Sun 10:12:33 AM 67.2950 -44.8700 225° Southwest 446 513 37,000  Level FlightAware ADS-B
Sun 10:13:16 AM 67.2310 -45.0310 224° Southwest 446 513 37,000  Level FlightAware ADS-B
Sun 10:13:46 AM 67.1860 -45.1440 224° Southwest 446 513 37,000  Level FlightAware ADS-B
Sun 10:14:34 AM 67.1160 -45.3200 224° Southwest 446 513 37,000  Level FlightAware ADS-B
Sun 10:15:26 AM 67.0390 -45.5090 224° Southwest 448 516 37,000  Level FlightAware ADS-B
Sun 10:15:58 AM 66.9910 -45.6280 224° Southwest 449 517 37,000  Level FlightAware ADS-B
Sun 10:16:36 AM 66.9340 -45.7670 224° Southwest 449 517 37,000  Level FlightAware ADS-B
Sun 10:17:18 AM 66.8710 -45.9190 223° Southwest 449 517 37,000  Level FlightAware ADS-B
Sun 10:17:49 AM 66.8250 -46.0310 224° Southwest 450 518 37,000  Level FlightAware ADS-B
Sun 10:18:26 AM 66.7690 -46.1660 224° Southwest 449 517 37,000  Level FlightAware ADS-B
Sun 10:19:06 AM 66.7080 -46.3110 223° Southwest 449 517 37,000  Level FlightAware ADS-B
Sun 10:19:54 AM 66.6360 -46.4810 223° Southwest 451 519 37,000  Level FlightAware ADS-B
Sun 10:20:39 AM 66.5680 -46.6400 223° Southwest 452 520 37,000  Level FlightAware ADS-B
Sun 10:21:14 AM 66.5140 -46.7670 223° Southwest 453 521 37,000  Level FlightAware ADS-B
Sun 10:21:43 AM 66.4710 -46.8650 222° Southwest 453 521 37,000  Level FlightAware ADS-B
Sun 10:22:32 AM 66.4030 -47.0190 222° Southwest 454 522 37,000  Level FlightAware ADS-B
Sun 10:23:09 AM 66.3540 -47.1290 222° Southwest 454 522 37,000  Level FlightAware ADS-B
Sun 10:23:45 AM 66.3060 -47.2360 222° Southwest 454 522 37,000  Level FlightAware ADS-B
Sun 10:24:34 AM 66.2410 -47.3820 222° Southwest 454 522 37,000  Level FlightAware ADS-B
Sun 10:24:58 AM 66.2090 -47.4530 222° Southwest 454 522 37,000  Level FlightAware ADS-B
Sun 10:25:46 AM 66.1460 -47.5950 222° Southwest 454 522 37,000  Level FlightAware ADS-B
Sun 10:26:34 AM 66.0820 -47.7360 222° Southwest 454 522 37,000  Level FlightAware ADS-B
Sun 10:27:11 AM 66.0330 -47.8450 222° Southwest 454 522 37,000  Level FlightAware ADS-B
Sun 10:28:22 AM 65.9390 -48.0530 222° Southwest 454 522 37,000  Level FlightAware ADS-B
Sun 10:28:46 AM 65.9070 -48.1240 222° Southwest 454 522 37,000  Level FlightAware ADS-B
Sun 10:29:34 AM 65.8430 -48.2640 222° Southwest 454 522 37,000  Level FlightAware ADS-B
Sun 10:29:58 AM 65.8110 -48.3340 222° Southwest 454 522 37,000  Level FlightAware ADS-B
Sun 10:30:34 AM 65.7630 -48.4390 222° Southwest 454 522 37,000  Level FlightAware ADS-B
Sun 10:31:46 AM 65.6680 -48.6480 222° Southwest 454 522 37,000  Level FlightAware ADS-B
Sun 10:34:00 AM 65.4727 -49.0951 224° Southwest  Level Estimated
Sun 10:35:00 AM 65.3848 -49.2932 223° Southwest  Level Estimated
Sun 10:36:00 AM 65.2967 -49.4899 223° Southwest  Level Estimated
Sun 10:37:00 AM 65.2083 -49.6853 223° Southwest  Level Estimated
Sun 10:38:00 AM 65.1197 -49.8795 223° Southwest  Level Estimated
Sun 10:39:00 AM 65.0308 -50.0723 223° Southwest  Level Estimated
Sun 10:40:00 AM 64.9417 -50.2638 222° Southwest  Level Estimated
Sun 10:41:00 AM 64.8523 -50.4541 222° Southwest  Level Estimated
Sun 10:41:56 AM 64.7010 -51.2220 222° Southwest 458 527 37,000  Level FlightAware ADS-B
Sun 10:42:00 AM 64.7627 -50.6431 222° Southwest  Level Estimated
Sun 10:42:28 AM 64.6660 -51.3610 240° Southwest 457 526 37,000  Level FlightAware ADS-B
Sun 10:43:12 AM 64.6190 -51.5490 240° Southwest 456 525 37,000  Level FlightAware ADS-B
Sun 10:44:02 AM 64.5660 -51.7540 239° Southwest 458 527 37,000  Level FlightAware ADS-B
Sun 10:44:30 AM 64.5350 -51.8730 239° Southwest 458 527 37,000  Level FlightAware ADS-B
Sun 10:45:05 AM 64.4960 -52.0260 239° Southwest 459 528 37,000  Level FlightAware ADS-B
Sun 10:45:41 AM 64.4560 -52.1780 239° Southwest 461 531 37,000  Level FlightAware ADS-B
Sun 10:46:13 AM 64.4210 -52.3120 239° Southwest 461 531 37,000  Level FlightAware ADS-B
Sun 10:46:46 AM 64.3850 -52.4460 238° Southwest 458 527 37,000  Level FlightAware ADS-B
Sun 10:47:26 AM 64.3400 -52.6140 238° Southwest 457 526 37,000  Level FlightAware ADS-B
Sun 10:47:59 AM 64.3030 -52.7530 239° Southwest 456 525 37,000  Level FlightAware ADS-B
Sun 10:48:29 AM 64.2750 -52.8550 238° Southwest 456 525 37,000  Level FlightAware ADS-B
Sun 10:49:07 AM 64.2300 -53.0240 239° Southwest 455 524 37,000  Level FlightAware ADS-B
Sun 10:49:44 AM 64.1940 -53.1510 237° Southwest 455 524 37,000  Level FlightAware ADS-B
Sun 10:50:24 AM 64.1430 -53.3380 238° Southwest 454 522 37,000  Level FlightAware ADS-B
Sun 10:50:47 AM 64.1170 -53.4330 238° Southwest 453 521 37,000  Level FlightAware ADS-B
Sun 10:51:28 AM 64.0720 -53.5940 237° Southwest 454 522 37,000  Level FlightAware ADS-B
Sun 10:52:21 AM 64.0210 -53.7750 237° Southwest 454 522 37,000  Level FlightAware ADS-B
Sun 10:53:22 AM 63.9610 -53.9830 237° Southwest 454 522 37,000  Level FlightAware ADS-B
Sun 10:53:59 AM 63.9250 -54.1090 237° Southwest 454 522 37,000  Level FlightAware ADS-B
Sun 10:54:35 AM 63.8900 -54.2320 237° Southwest 454 522 37,000  Level FlightAware ADS-B
Sun 10:55:11 AM 63.8550 -54.3540 237° Southwest 454 522 37,000  Level FlightAware ADS-B
Sun 10:55:58 AM 63.8090 -54.5140 237° Southwest 454 522 37,000  Level FlightAware ADS-B
Sun 10:56:22 AM 63.7860 -54.5950 237° Southwest 454 522 37,000  Level FlightAware ADS-B
Sun 10:57:32 AM 63.7180 -54.8320 237° Southwest 454 522 37,000  Level FlightAware ADS-B
Sun 10:58:08 AM 63.6830 -54.9540 237° Southwest 454 522 37,000  Level FlightAware ADS-B
Sun 10:58:44 AM 63.6480 -55.0750 237° Southwest 454 522 37,000  Level FlightAware ADS-B
Sun 10:59:10 AM 63.6230 -55.1630 237° Southwest 454 522 37,000  Level FlightAware ADS-B
Sun 10:59:58 AM 63.5760 -55.3240 237° Southwest 454 522 37,000  Level FlightAware ADS-B
Sun 11:00:34 AM 63.5410 -55.4450 237° Southwest 454 522 37,000  Level FlightAware ADS-B
Sun 11:01:24 AM 63.4920 -55.6130 237° Southwest 454 522 37,000  Level FlightAware ADS-B
Sun 11:01:54 AM 63.3833 -55.9667 237° Southwest 460 529 37,000  Level Gander Center
Sun 11:02:54 AM 63.3167 -56.1500 231° Southwest 460 529 37,000  Level Gander Center
Sun 11:03:54 AM 63.2333 -56.3833 232° Southwest 450 518 37,000  Level Gander Center
Sun 11:04:54 AM 63.1667 -56.6667 243° Southwest 460 529 37,000  Level Gander Center
Sun 11:05:54 AM 63.0833 -56.8500 225° Southwest 460 529 37,000  Level Gander Center
Sun 11:06:54 AM 63.0167 -57.0833 238° Southwest 460 529 37,000 250 Level Gander Center
Sun 11:07:54 AM 62.9500 -57.3167 238° Southwest 460 529 37,500 500 Climbing Gander Center
Sun 11:08:54 AM 62.8667 -57.5333 230° Southwest 460 529 38,000 54 Climbing Gander Center
Sun 11:10:00 AM 62.7933 -57.7529 234° Southwest  Level FlightAware Approximate
Sun 11:17:00 AM 62.2871 -59.2120 234° Southwest  Level FlightAware Approximate
Sun 11:17:13 AM 62.2333 -59.3667 221° Southwest 370 426 38,000  Level Gander Center
Sun 11:18:00 AM 62.2136 -59.4164 232° Southwest  Level FlightAware Approximate
Sun 11:18:13 AM 62.1667 -59.6167 240° Southwest 460 529 38,000  Level Gander Center
Sun 11:19:00 AM 62.1398 -59.6198 232° Southwest  Level FlightAware Approximate
Sun 11:19:13 AM 62.0833 -59.8333 231° Southwest 450 518 38,000  Level Gander Center
Sun 11:20:00 AM 62.0656 -59.8222 232° Southwest  Level FlightAware Approximate
Sun 11:20:13 AM 62.0167 -60.0500 237° Southwest 450 518 38,000  Level Gander Center
Sun 11:21:00 AM 61.9893 -60.0198 221° Southwest  Level FlightAware Approximate
Sun 11:21:13 AM 61.9333 -60.2667 231° Southwest 450 518 38,000  Level Gander Center
Sun 11:22:27 AM 61.8500 -60.4667 229° Southwest 450 518 38,000  Level Montreal Center
Sun 11:23:27 AM 61.7833 -60.6500 232° Southwest 450 518 38,000  Level Montreal Center
Sun 11:24:27 AM 61.7000 -60.8833 233° Southwest 450 518 38,000  Level Montreal Center
Sun 11:25:27 AM 61.6333 -61.1167 239° Southwest 460 529 38,000  Level Montreal Center
Sun 11:26:27 AM 61.5500 -61.3333 231° Southwest 450 518 38,000  Level Montreal Center
Sun 11:27:13 AM 61.5000 -61.5333 242° Southwest 450 518 38,000  Level Gander Center
Sun 11:28:27 AM 61.4167 -61.7333 229° Southwest 440 506 38,000  Level Montreal Center
Sun 11:29:27 AM 61.3333 -61.9000 224° Southwest 440 506 38,000  Level Montreal Center
Sun 11:31:27 AM 61.1833 -62.3167 233° Southwest 440 506 38,000  Level Montreal Center
Sun 11:32:27 AM 61.1167 -62.5333 238° Southwest 440 506 38,000  Level Montreal Center
Sun 11:33:27 AM 61.0333 -62.7333 229° Southwest 440 506 38,000  Level Montreal Center
Sun 11:34:27 AM 60.9500 -62.9500 232° Southwest 440 506 38,000  Level Montreal Center
Sun 11:35:13 AM 60.9000 -63.1667 245° Southwest 450 518 38,000  Level Gander Center
Sun 11:36:27 AM 60.8000 -63.3500 222° Southwest 440 506 38,000  Level Montreal Center
Sun 11:37:27 AM 60.7333 -63.5500 236° Southwest 440 506 38,000  Level Montreal Center
Sun 11:38:27 AM 60.6500 -63.7500 230° Southwest 440 506 38,000  Level Montreal Center
Sun 11:39:13 AM 60.5833 -63.9500 236° Southwest 440 506 38,000  Level Gander Center
Sun 11:40:13 AM 60.5167 -64.1500 236° Southwest 440 506 38,000  Level Gander Center
Sun 11:41:13 AM 60.4500 -64.3500 236° Southwest 440 506 38,000  Level Gander Center
Sun 11:42:27 AM 60.3500 -64.5167 220° Southwest 440 506 38,000  Level Montreal Center
Sun 11:43:27 AM 60.2667 -64.6833 225° Southwest 440 506 38,000  Level Montreal Center
Sun 11:44:27 AM 60.1833 -64.8833 230° Southwest 440 506 38,000  Level Montreal Center
Sun 11:45:13 AM 60.1333 -65.0833 243° Southwest 440 506 38,000  Level Gander Center
Sun 11:46:27 AM 60.0167 -65.2500 216° Southwest 440 506 38,000  Level Montreal Center
Sun 11:47:27 AM 59.9167 -65.4167 220° Southwest 440 506 38,000  Level Montreal Center
Sun 11:49:13 AM 59.7667 -65.7500 228° Southwest 440 506 38,000  Level Gander Center
Sun 11:50:27 AM 59.6500 -65.9000 213° Southwest 440 506 38,000  Level Montreal Center
Sun 11:51:27 AM 59.5667 -66.0500 222° Southwest 440 506 38,000  Level Montreal Center
Sun 11:52:27 AM 59.4833 -66.2167 225° Southwest 440 506 38,000  Level Montreal Center
Sun 11:53:27 AM 59.3833 -66.3333 211° Southwest 430 495 38,000  Level Montreal Center
Sun 11:54:13 AM 59.3000 -66.5333 231° Southwest 440 506 38,000  Level Gander Center
Sun 11:55:27 AM 59.1833 -66.6500 207° Southwest 430 495 38,000  Level Montreal Center
Sun 11:56:27 AM 59.1000 -66.8167 226° Southwest 430 495 38,000  Level Montreal Center
Sun 11:57:27 AM 59.0000 -66.9667 218° Southwest 430 495 38,000  Level Montreal Center
Sun 11:58:27 AM 58.9167 -67.1167 223° Southwest 430 495 38,000  Level Montreal Center
Sun 11:59:27 AM 58.8167 -67.2833 221° Southwest 430 495 38,000  Level Montreal Center
Sun 12:00:27 PM 58.7333 -67.4333 223° Southwest 430 495 38,000  Level Montreal Center
Sun 12:01:27 PM 58.6167 -67.5833 214° Southwest 430 495 38,000  Level Montreal Center
Sun 12:02:27 PM 58.5333 -67.7000 216° Southwest 430 495 38,000  Level Montreal Center
Sun 12:03:27 PM 58.4333 -67.8500 218° Southwest 430 495 38,000  Level Montreal Center
Sun 12:04:27 PM 58.3500 -68.0000 223° Southwest 430 495 38,000  Level Montreal Center
Sun 12:05:27 PM 58.2500 -68.1500 218° Southwest 440 506 38,000  Level Montreal Center
Sun 12:06:27 PM 58.1667 -68.3333 229° Southwest 440 506 38,000  Level Montreal Center
Sun 12:07:27 PM 58.0667 -68.4500 212° Southwest 440 506 38,000  Level Montreal Center
Sun 12:08:27 PM 57.9667 -68.5667 212° Southwest 450 518 38,000  Level Montreal Center
Sun 12:09:27 PM 57.8667 -68.7167 219° Southwest 440 506 38,000  Level Montreal Center
Sun 12:10:27 PM 57.7667 -68.8500 215° Southwest 440 506 38,000  Level Montreal Center
Sun 12:11:27 PM 57.6833 -68.9667 217° Southwest 440 506 38,000  Level Montreal Center
Sun 12:12:27 PM 57.5833 -69.1167 219° Southwest 440 506 38,000  Level Montreal Center
Sun 12:13:27 PM 57.4667 -69.2333 208° Southwest 440 506 38,000  Level Montreal Center
Sun 12:14:27 PM 57.3833 -69.3667 221° Southwest 440 506 38,000  Level Montreal Center
Sun 12:15:27 PM 57.2833 -69.5167 219° Southwest 440 506 38,000  Level Montreal Center
Sun 12:16:27 PM 57.1667 -69.6500 212° Southwest 430 495 38,000  Level Montreal Center
Sun 12:17:27 PM 57.0833 -69.7667 217° Southwest 430 495 38,000  Level Montreal Center
Sun 12:18:27 PM 56.9833 -69.9000 216° Southwest 430 495 38,000  Level Montreal Center
Sun 12:19:27 PM 56.8833 -70.0167 213° Southwest 430 495 38,000  Level Montreal Center
Sun 12:20:27 PM 56.7833 -70.1500 216° Southwest 430 495 38,000  Level Montreal Center
Sun 12:21:27 PM 56.6833 -70.2667 213° Southwest 430 495 38,000  Level Montreal Center
Sun 12:22:27 PM 56.5833 -70.4000 216° Southwest 430 495 38,000  Level Montreal Center
Sun 12:23:27 PM 56.4833 -70.5333 216° Southwest 430 495 38,000  Level Montreal Center
Sun 12:24:27 PM 56.3833 -70.6333 209° Southwest 430 495 38,000  Level Montreal Center
Sun 12:25:27 PM 56.3000 -70.7667 222° Southwest 430 495 38,000  Level Montreal Center
Sun 12:26:27 PM 56.1833 -70.8833 209° Southwest 430 495 38,000  Level Montreal Center
Sun 12:27:27 PM 56.0833 -71.0167 217° Southwest 430 495 38,000  Level Montreal Center
Sun 12:28:27 PM 55.9833 -71.1500 217° Southwest 430 495 38,000  Level Montreal Center
Sun 12:29:27 PM 55.8833 -71.2500 209° Southwest 430 495 38,000  Level Montreal Center
Sun 12:30:27 PM 55.7833 -71.3833 217° Southwest 430 495 38,000  Level Montreal Center
Sun 12:31:27 PM 55.6833 -71.4833 209° Southwest 430 495 38,000  Level Montreal Center
Sun 12:32:27 PM 55.5833 -71.6167 217° Southwest 430 495 38,000  Level Montreal Center
Sun 12:33:27 PM 55.4833 -71.7500 217° Southwest 430 495 38,000  Level Montreal Center
Sun 12:34:27 PM 55.3667 -71.8500 206° Southwest 430 495 38,000  Level Montreal Center
Sun 12:35:27 PM 55.2833 -71.9667 219° Southwest 430 495 38,000  Level Montreal Center
Sun 12:36:27 PM 55.1667 -72.1000 213° Southwest 430 495 38,000  Level Montreal Center
Sun 12:37:27 PM 55.0667 -72.2000 210° Southwest 430 495 38,000  Level Montreal Center
Sun 12:38:27 PM 54.9667 -72.3167 214° Southwest 430 495 38,000  Level Montreal Center
Sun 12:39:27 PM 54.8667 -72.4167 210° Southwest 430 495 38,000  Level Montreal Center
Sun 12:40:27 PM 54.7667 -72.5500 218° Southwest 430 495 38,000  Level Montreal Center
Sun 12:41:27 PM 54.6667 -72.6667 214° Southwest 440 506 38,000  Level Montreal Center
Sun 12:42:27 PM 54.5667 -72.7667 210° Southwest 430 495 38,000  Level Montreal Center
Sun 12:43:27 PM 54.4667 -72.9000 218° Southwest 440 506 38,000  Level Montreal Center
Sun 12:44:27 PM 54.3667 -72.9833 206° Southwest 430 495 38,000  Level Montreal Center
Sun 12:45:27 PM 54.2667 -73.1167 218° Southwest 430 495 38,000  Level Montreal Center
Sun 12:46:27 PM 54.1500 -73.2333 210° Southwest 440 506 38,000  Level Montreal Center
Sun 12:47:27 PM 54.0500 -73.3167 206° Southwest 440 506 38,000  Level Montreal Center
Sun 12:48:27 PM 53.9333 -73.4500 214° Southwest 430 495 38,000  Level Montreal Center
Sun 12:49:27 PM 53.8333 -73.5667 215° Southwest 430 495 38,000  Level Montreal Center
Sun 12:50:27 PM 53.7333 -73.6500 206° Southwest 440 506 38,000  Level Montreal Center
Sun 12:51:27 PM 53.6167 -73.7500 207° Southwest 440 506 38,000  Level Montreal Center
Sun 12:52:27 PM 53.5167 -73.8667 215° Southwest 440 506 38,000  Level Montreal Center
Sun 12:53:27 PM 53.4000 -73.9500 203° Southwest 440 506 38,000  Level Montreal Center
Sun 12:54:27 PM 53.3000 -74.0500 211° Southwest 440 506 38,000  Level Montreal Center
Sun 12:55:27 PM 53.1833 -74.1333 203° Southwest 440 506 38,000  Level Montreal Center
Sun 12:56:27 PM 53.0667 -74.2333 207° Southwest 440 506 38,000  Level Montreal Center
Sun 12:57:27 PM 52.9667 -74.3167 207° Southwest 440 506 38,000  Level Montreal Center
Sun 12:58:27 PM 52.8667 -74.4000 207° Southwest 440 506 38,000  Level Montreal Center
Sun 12:59:27 PM 52.7333 -74.4833 201° Southwest 440 506 38,000  Level Montreal Center
Sun 01:00:27 PM 52.6500 -74.5833 216° Southwest 440 506 38,000  Level Montreal Center
Sun 01:01:27 PM 52.5167 -74.6667 201° Southwest 450 518 38,000  Level Montreal Center
Sun 01:02:27 PM 52.4000 -74.7833 211° Southwest 440 506 38,000  Level Montreal Center
Sun 01:03:27 PM 52.3000 -74.8333 197° South 430 495 38,000  Level Montreal Center
Sun 01:04:27 PM 52.1833 -74.9500 212° Southwest 440 506 38,000  Level Montreal Center
Sun 01:05:27 PM 52.0667 -75.0333 204° Southwest 440 506 38,000  Level Montreal Center
Sun 01:06:27 PM 51.9500 -75.1167 204° Southwest 450 518 38,000  Level Montreal Center
Sun 01:07:27 PM 51.8500 -75.2000 207° Southwest 440 506 38,000  Level Montreal Center
Sun 01:08:27 PM 51.7333 -75.2833 204° Southwest 440 506 38,000  Level Montreal Center
Sun 01:09:27 PM 51.6167 -75.3667 204° Southwest 440 506 38,000  Level Montreal Center
Sun 01:10:27 PM 51.5167 -75.4500 207° Southwest 450 518 38,000  Level Montreal Center
Sun 01:11:27 PM 51.4000 -75.5667 212° Southwest 440 506 38,000  Level Montreal Center
Sun 01:12:27 PM 51.2833 -75.6500 204° Southwest 440 506 38,000  Level Montreal Center
Sun 01:13:27 PM 51.1667 -75.7167 200° South 440 506 38,000  Level Montreal Center
Sun 01:14:27 PM 51.0667 -75.8000 208° Southwest 440 506 38,000  Level Montreal Center
Sun 01:15:27 PM 50.9500 -75.8833 204° Southwest 450 518 38,000  Level Montreal Center
Sun 01:16:27 PM 50.8333 -75.9667 204° Southwest 450 518 38,000  Level Montreal Center
Sun 01:17:27 PM 50.7167 -76.0500 204° Southwest 450 518 38,000  Level Montreal Center
Sun 01:18:27 PM 50.6167 -76.1500 212° Southwest 450 518 38,000  Level Montreal Center
Sun 01:19:27 PM 50.5000 -76.2333 204° Southwest 450 518 38,000  Level Montreal Center
Sun 01:20:27 PM 50.3833 -76.3167 204° Southwest 450 518 38,000  Level Montreal Center
Sun 01:21:27 PM 50.2833 -76.3833 203° Southwest 450 518 38,000  Level Montreal Center
Sun 01:22:27 PM 50.1500 -76.4667 202° Southwest 450 518 38,000  Level Montreal Center
Sun 01:23:27 PM 50.0333 -76.5500 205° Southwest 450 518 38,000  Level Montreal Center
Sun 01:24:27 PM 49.9167 -76.6500 209° Southwest 450 518 38,000  Level Montreal Center
Sun 01:25:27 PM 49.8000 -76.7167 200° South 450 518 38,000  Level Montreal Center
Sun 01:26:27 PM 49.6833 -76.8000 205° Southwest 450 518 38,000  Level Montreal Center
Sun 01:27:27 PM 49.5833 -76.8667 203° Southwest 450 518 38,000  Level Montreal Center
Sun 01:28:27 PM 49.4500 -76.9500 202° Southwest 450 518 38,000  Level Montreal Center
Sun 01:29:27 PM 49.3333 -77.0167 200° South 470 541 38,000  Level Montreal Center
Sun 01:30:27 PM 49.2333 -77.1167 213° Southwest 440 506 38,000  Level Montreal Center
Sun 01:31:27 PM 49.1167 -77.2000 205° Southwest 460 529 38,000  Level Montreal Center
Sun 01:36:19 PM 48.5570 -77.5690 205° Southwest 452 520 38,000  Level FlightAware ADS-B
Sun 01:37:03 PM 48.4990 -77.6080 204° Southwest 452 520 38,000  Level FlightAware ADS-B
Sun 01:37:22 PM 48.4360 -77.6490 203° Southwest 453 521 38,000  Level FlightAware ADS-B
Sun 01:38:10 PM 48.3460 -77.7090 204° Southwest 455 524 38,000  Level FlightAware ADS-B
Sun 01:38:51 PM 48.2680 -77.7600 204° Southwest 457 526 38,000  Level FlightAware ADS-B
Sun 01:39:23 PM 48.2110 -77.7970 203° Southwest 457 526 38,000  Level FlightAware ADS-B
Sun 01:40:02 PM 48.1470 -77.8380 203° Southwest 457 526 38,000  Level FlightAware ADS-B
Sun 01:40:38 PM 48.0540 -77.8920 201° Southwest 461 531 38,000  Level FlightAware ADS-B
Sun 01:41:03 PM 48.0040 -77.9210 201° Southwest 461 531 38,000  Level FlightAware ADS-B
Sun 01:41:39 PM 47.9330 -77.9630 202° Southwest 462 532 38,000  Level FlightAware ADS-B
Sun 01:42:04 PM 47.8850 -77.9910 201° Southwest 461 531 38,000  Level FlightAware ADS-B
Sun 01:42:38 PM 47.8430 -78.0150 201° Southwest 461 531 38,000  Level FlightAware ADS-B
Sun 01:43:21 PM 47.7290 -78.0810 201° Southwest 461 531 38,000  Level FlightAware ADS-B
Sun 01:43:58 PM 47.6540 -78.1240 201° Southwest 460 529 38,000  Level FlightAware ADS-B
Sun 01:44:29 PM 47.5940 -78.1590 201° Southwest 460 529 38,000  Level FlightAware ADS-B
Sun 01:45:09 PM 47.5150 -78.2050 201° Southwest 460 529 38,000  Level FlightAware ADS-B
Sun 01:46:12 PM 47.3880 -78.2770 201° Southwest 460 529 38,000  Level FlightAware ADS-B
Sun 01:46:37 PM 47.3410 -78.3040 201° Southwest 460 529 38,000  Level FlightAware ADS-B
Sun 01:47:13 PM 47.2700 -78.3440 201° Southwest 461 531 38,000  Level FlightAware ADS-B
Sun 01:47:51 PM 47.1940 -78.3880 201° Southwest 461 531 38,000  Level FlightAware ADS-B
Sun 01:49:00 PM 47.0560 -78.4650 201° Southwest 459 528 38,000  Level FlightAware ADS-B
Sun 01:49:51 PM 46.9550 -78.5220 201° Southwest 459 528 38,000  Level FlightAware ADS-B
Sun 01:50:29 PM 46.8800 -78.5640 201° Southwest 458 527 38,000  Level FlightAware ADS-B
Sun 01:51:14 PM 46.7900 -78.6140 201° Southwest 460 529 38,000  Level FlightAware ADS-B
Sun 01:51:49 PM 46.7260 -78.6500 201° Southwest 461 531 38,000  Level FlightAware ADS-B
Sun 01:52:44 PM 46.6110 -78.7140 201° Southwest 461 531 38,000  Level FlightAware ADS-B
Sun 01:53:42 PM 46.4950 -78.7780 201° Southwest 462 532 38,000  Level FlightAware ADS-B
Sun 01:54:15 PM 46.4310 -78.8130 201° Southwest 462 532 38,000  Level FlightAware ADS-B
Sun 01:55:11 PM 46.3180 -78.8750 201° Southwest 464 534 38,000  Level FlightAware ADS-B
Sun 01:55:43 PM 46.2540 -78.9100 201° Southwest 464 534 38,000  Level FlightAware ADS-B
Sun 01:56:44 PM 46.1310 -78.9770 201° Southwest 465 535 38,000  Level FlightAware ADS-B
Sun 01:57:30 PM 46.0380 -79.0270 200° South 465 535 38,000  Level FlightAware ADS-B
Sun 01:58:04 PM 45.9700 -79.0640 201° Southwest 465 535 38,000  Level FlightAware ADS-B
Sun 01:59:03 PM 45.8520 -79.1280 201° Southwest 467 537 38,000  Level FlightAware ADS-B
Sun 01:59:39 PM 45.7790 -79.1670 200° South 468 539 38,000  Level FlightAware ADS-B
Sun 02:00:17 PM 45.7010 -79.2080 200° South 467 537 38,000  Level FlightAware ADS-B
Sun 02:00:47 PM 45.6400 -79.2410 201° Southwest 468 539 38,000  Level FlightAware ADS-B
Sun 02:01:36 PM 45.5410 -79.2940 201° Southwest 467 537 38,000  Level FlightAware ADS-B
Sun 02:02:11 PM 45.4700 -79.3310 200° South 467 537 38,000  Level FlightAware ADS-B
Sun 02:02:47 PM 45.3970 -79.3700 201° Southwest 466 536 38,000  Level FlightAware ADS-B
Sun 02:03:40 PM 45.2900 -79.4260 200° South 466 536 38,000  Level FlightAware ADS-B
Sun 02:04:14 PM 45.2210 -79.4620 200° South 465 535 38,000  Level FlightAware ADS-B
Sun 02:04:49 PM 45.1520 -79.4990 201° Southwest 464 534 38,000  Level FlightAware ADS-B
Sun 02:05:25 PM 45.0810 -79.5350 200° South 463 533 38,000  Level FlightAware ADS-B
Sun 02:06:06 PM 45.0010 -79.5770 200° South 460 529 38,000  Level FlightAware ADS-B
Sun 02:06:44 PM 44.9230 -79.6180 200° South 458 527 38,000  Level FlightAware ADS-B
Sun 02:07:22 PM 44.8460 -79.6570 200° South 456 525 38,000  Level FlightAware ADS-B
Sun 02:07:59 PM 44.7720 -79.6960 201° Southwest 454 522 38,000  Level FlightAware ADS-B
Sun 02:08:35 PM 44.7020 -79.7320 200° South 452 520 38,000  Level FlightAware ADS-B
Sun 02:09:01 PM 44.6530 -79.7570 200° South 452 520 38,000  Level FlightAware ADS-B
Sun 02:09:37 PM 44.5820 -79.7980 202° Southwest 449 517 38,000  Level FlightAware ADS-B
Sun 02:10:19 PM 44.5070 -79.8590 210° Southwest 442 509 38,000  Level FlightAware ADS-B
Sun 02:10:52 PM 44.4540 -79.9080 213° Southwest 443 510 38,000  Level FlightAware ADS-B
Sun 02:11:03 PM 44.4330 -79.9270 213° Southwest 444 511 38,000  Level FlightAware ADS-B
Sun 02:11:57 PM 44.3430 -80.0090 213° Southwest 444 511 38,000  Level FlightAware ADS-B
Sun 02:12:27 PM 44.2910 -80.0550 212° Southwest 442 509 38,000  Level FlightAware ADS-B
Sun 02:13:02 PM 44.2310 -80.1080 212° Southwest 440 506 38,000  Level FlightAware ADS-B
Sun 02:14:01 PM 44.1280 -80.2010 213° Southwest 441 507 38,000  Level FlightAware ADS-B
Sun 02:14:33 PM 44.0720 -80.2510 213° Southwest 441 507 38,000  Level FlightAware ADS-B
Sun 02:15:04 PM 44.0190 -80.2970 212° Southwest 441 507 38,000  Level FlightAware ADS-B
Sun 02:15:40 PM 43.9560 -80.3530 213° Southwest 443 510 38,000  Level FlightAware ADS-B
Sun 02:16:52 PM 43.8310 -80.4630 212° Southwest 446 513 38,000  Level FlightAware ADS-B
Sun 02:17:24 PM 43.7750 -80.5130 213° Southwest 444 511 38,000  Level FlightAware ADS-B
Sun 02:17:53 PM 43.7250 -80.5560 212° Southwest 443 510 38,000  Level FlightAware ADS-B
Sun 02:18:40 PM 43.6440 -80.6270 212° Southwest 441 507 38,000  Level FlightAware ADS-B
Sun 02:19:24 PM 43.5690 -80.6920 212° Southwest 440 506 38,000  Level FlightAware ADS-B
Sun 02:20:01 PM 43.5050 -80.7480 212° Southwest 437 503 38,000  Level FlightAware ADS-B
Sun 02:20:42 PM 43.4360 -80.8080 212° Southwest 435 501 38,000  Level FlightAware ADS-B
Sun 02:21:14 PM 43.3820 -80.8540 212° Southwest 434 499 38,000  Level FlightAware ADS-B
Sun 02:21:51 PM 43.3180 -80.9100 212° Southwest 432 497 38,000  Level FlightAware ADS-B
Sun 02:22:29 PM 43.2530 -80.9650 212° Southwest 430 495 38,000  Level FlightAware ADS-B
Sun 02:23:11 PM 43.1830 -81.0250 212° Southwest 428 493 38,000  Level FlightAware ADS-B
Sun 02:23:54 PM 43.1130 -81.0850 212° Southwest 425 489 38,000  Level FlightAware ADS-B
Sun 02:24:29 PM 43.0540 -81.1350 212° Southwest 426 490 38,000  Level FlightAware ADS-B
Sun 02:25:11 PM 42.9770 -81.1850 205° Southwest 435 501 38,000  Level FlightAware ADS-B
Sun 02:25:46 PM 42.9160 -81.2240 205° Southwest 433 498 38,000  Level FlightAware ADS-B
Sun 02:26:17 PM 42.8590 -81.2600 205° Southwest 438 504 38,000  Level FlightAware ADS-B
Sun 02:26:55 PM 42.7850 -81.3050 204° Southwest 444 511 38,000  Level FlightAware ADS-B
Sun 02:27:50 PM 42.6840 -81.3680 205° Southwest 443 510 38,000  Level FlightAware ADS-B
Sun 02:28:38 PM 42.5940 -81.4230 204° Southwest 443 510 38,000  Level FlightAware ADS-B
Sun 02:29:11 PM 42.5320 -81.4610 204° Southwest 449 517 38,000  Level FlightAware ADS-B
Sun 02:29:58 PM 42.4450 -81.5130 204° Southwest 450 518 38,000  Level FlightAware ADS-B
Sun 02:30:41 PM 42.3640 -81.5630 205° Southwest 447 514 38,000  Level FlightAware ADS-B
Sun 02:31:11 PM 42.3030 -81.5990 204° Southwest 444 511 38,000  Level FlightAware ADS-B
Sun 02:31:55 PM 42.2280 -81.6440 204° Southwest 440 506 38,000  Level FlightAware ADS-B
Sun 02:33:00 PM 42.1030 -81.7200 204° Southwest 439 505 38,000  Level FlightAware ADS-B
Sun 02:33:24 PM 42.0590 -81.7460 204° Southwest 438 504 38,000  Level FlightAware ADS-B
Sun 02:33:57 PM 41.9990 -81.7830 205° Southwest 435 501 38,000  Level FlightAware ADS-B
Sun 02:34:34 PM 41.9280 -81.8250 204° Southwest 433 498 38,000  Level FlightAware ADS-B
Sun 02:35:12 PM 41.8590 -81.8660 204° Southwest 431 496 38,000  Level FlightAware ADS-B
Sun 02:35:47 PM 41.7970 -81.9030 204° Southwest 427 491 38,000  Level FlightAware ADS-B
Sun 02:36:19 PM 41.7380 -81.9380 204° Southwest 427 491 38,000  Level FlightAware ADS-B
Sun 02:36:51 PM 41.6850 -81.9690 204° Southwest 427 491 38,000  Level FlightAware ADS-B
Sun 02:37:52 PM 41.5710 -82.0370 204° Southwest 423 487 38,000  Level FlightAware ADS-B
Sun 02:38:28 PM 41.5060 -82.0750 204° Southwest 424 488 38,000  Level FlightAware ADS-B
Sun 02:39:04 PM 41.4420 -82.1130 204° Southwest 428 493 38,000  Level FlightAware ADS-B
Sun 02:40:04 PM 41.3320 -82.1710 202° Southwest 445 512 38,000  Level FlightAware ADS-B
Sun 02:40:40 PM 41.2590 -82.1960 194° South 447 514 38,000  Level FlightAware ADS-B
Sun 02:41:06 PM 41.2060 -82.2160 196° South 447 514 38,000  Level FlightAware ADS-B
Sun 02:42:05 PM 41.0880 -82.2590 195° South 444 511 38,000  Level FlightAware ADS-B
Sun 02:42:39 PM 41.0230 -82.2820 195° South 439 505 38,000  Level FlightAware ADS-B
Sun 02:43:21 PM 40.9420 -82.3110 195° South 434 499 38,000  Level FlightAware ADS-B
Sun 02:44:13 PM 40.8380 -82.3480 195° South 430 495 38,000  Level FlightAware ADS-B
Sun 02:44:55 PM 40.7580 -82.3760 195° South 428 493 38,000  Level FlightAware ADS-B
Sun 02:45:27 PM 40.6960 -82.3980 195° South 428 493 38,000  Level FlightAware ADS-B
Sun 02:46:01 PM 40.6320 -82.4200 195° South 429 494 38,000  Level FlightAware ADS-B
Sun 02:46:33 PM 40.5710 -82.4420 195° South 429 494 38,000  Level FlightAware ADS-B
Sun 02:47:09 PM 40.5010 -82.4670 195° South 430 495 38,000  Level FlightAware ADS-B
Sun 02:47:45 PM 40.4320 -82.4910 195° South 430 495 38,000  Level FlightAware ADS-B
Sun 02:48:27 PM 40.3530 -82.5180 195° South 431 496 38,000  Level FlightAware ADS-B
Sun 02:48:59 PM 40.2910 -82.5400 195° South 432 497 38,000  Level FlightAware ADS-B
Sun 02:49:59 PM 40.1710 -82.5800 194° South 440 506 38,000  Level FlightAware ADS-B
Sun 02:50:39 PM 40.0910 -82.5910 186° South 455 524 38,000  Level FlightAware ADS-B
Sun 02:51:19 PM 40.0100 -82.5970 183° South 452 520 38,000  Level FlightAware ADS-B
Sun 02:51:59 PM 39.9240 -82.6040 184° South 451 519 38,000  Level FlightAware ADS-B
Sun 02:52:33 PM 39.8500 -82.6090 183° South 451 519 38,000  Level FlightAware ADS-B
Sun 02:53:09 PM 39.7770 -82.6140 183° South 451 519 38,000  Level FlightAware ADS-B
Sun 02:54:15 PM 39.6400 -82.6230 183° South 449 517 38,000  Level FlightAware ADS-B
Sun 02:55:25 PM 39.4940 -82.6330 183° South 449 517 38,000  Level FlightAware ADS-B
Sun 02:55:53 PM 39.4360 -82.6370 183° South 450 518 38,000  Level FlightAware ADS-B
Sun 02:56:29 PM 39.3600 -82.6420 183° South 451 519 38,000  Level FlightAware ADS-B
Sun 02:57:01 PM 39.2930 -82.6460 183° South 452 520 38,000  Level FlightAware ADS-B
Sun 02:57:37 PM 39.2180 -82.6510 183° South 452 520 38,000  Level FlightAware ADS-B
Sun 02:58:13 PM 39.1420 -82.6560 183° South 451 519 38,000  Level FlightAware ADS-B
Sun 02:58:53 PM 39.0600 -82.6620 183° South 452 520 38,000  Level FlightAware ADS-B
Sun 02:59:55 PM 38.9320 -82.6700 183° South 457 526 38,000  Level FlightAware ADS-B
Sun 03:00:31 PM 38.8550 -82.6750 183° South 458 527 38,000  Level FlightAware ADS-B
Sun 03:01:07 PM 38.7750 -82.6800 183° South 459 528 38,000  Level FlightAware ADS-B
Sun 03:01:45 PM 38.6950 -82.6860 183° South 461 531 38,000  Level FlightAware ADS-B
Sun 03:02:22 PM 38.6220 -82.6900 182° South 461 531 38,000  Level FlightAware ADS-B
Sun 03:02:57 PM 38.5430 -82.6960 183° South 460 529 38,000  Level FlightAware ADS-B
Sun 03:03:23 PM 38.4890 -82.6990 182° South 459 528 38,000  Level FlightAware ADS-B
Sun 03:04:13 PM 38.3830 -82.7060 183° South 458 527 38,000  Level FlightAware ADS-B
Sun 03:04:54 PM 38.2960 -82.7120 183° South 457 526 38,000  Level FlightAware ADS-B
Sun 03:05:26 PM 38.2270 -82.7160 183° South 454 522 38,000  Level FlightAware ADS-B
Sun 03:06:09 PM 38.1370 -82.7218 183° South 450 518 38,000  Level FlightAware ADS-B
Sun 03:06:42 PM 38.0675 -82.7263 183° South 449 517 38,000  Level FlightAware ADS-B
Sun 03:07:13 PM 38.0050 -82.7302 183° South 447 514 38,000  Level FlightAware ADS-B
Sun 03:08:20 PM 37.8652 -82.7393 183° South 448 516 38,000  Level FlightAware ADS-B
Sun 03:09:12 PM 37.7615 -82.7472 183° South 444 511 38,000  Level FlightAware ADS-B
Sun 03:09:54 PM 37.6748 -82.7689 191° South 441 507 38,000  Level FlightAware ADS-B
Sun 03:10:08 PM 37.6476 -82.7797 197° South 430 495 38,000  Level FlightAware ADS-B
Sun 03:10:43 PM 37.5861 -82.8117 202° Southwest 420 483 38,000  Level FlightAware ADS-B
Sun 03:11:13 PM 37.5331 -82.8466 208° Southwest 418 481 38,000  Level FlightAware ADS-B
Sun 03:11:53 PM 37.4664 -82.8905 208° Southwest 417 480 38,000  Level FlightAware ADS-B
Sun 03:12:36 PM 37.3922 -82.9394 208° Southwest 416 479 38,000  Level FlightAware ADS-B
Sun 03:13:07 PM 37.3393 -82.9741 208° Southwest 418 481 38,000  Level FlightAware ADS-B
Sun 03:13:38 PM 37.2855 -83.0095 208° Southwest 420 483 38,000  Level FlightAware ADS-B
Sun 03:14:09 PM 37.2326 -83.0441 208° Southwest 421 484 38,000  Level FlightAware ADS-B
Sun 03:14:42 PM 37.1756 -83.0812 207° Southwest 420 483 38,000  Level FlightAware ADS-B
Sun 03:15:16 PM 37.1172 -83.1193 207° Southwest 420 483 38,000  Level FlightAware ADS-B
Sun 03:15:49 PM 37.0602 -83.1564 207° Southwest 420 483 38,000  Level FlightAware ADS-B
Sun 03:16:20 PM 37.0076 -83.1905 207° Southwest 420 483 38,000  Level FlightAware ADS-B
Sun 03:16:50 PM 36.9547 -83.2248 207° Southwest 420 483 38,000  Level FlightAware ADS-B
Sun 03:17:24 PM 36.8958 -83.2629 207° Southwest 419 482 38,000  Level FlightAware ADS-B
Sun 03:17:56 PM 36.8408 -83.2985 207° Southwest 419 482 38,000  Level FlightAware ADS-B
Sun 03:18:27 PM 36.7887 -83.3321 207° Southwest 420 483 38,000  Level FlightAware ADS-B
Sun 03:18:58 PM 36.7350 -83.3667 207° Southwest 419 482 38,000  Level FlightAware ADS-B
Sun 03:19:29 PM 36.6806 -83.4017 207° Southwest 419 482 38,000  Level FlightAware ADS-B
Sun 03:20:00 PM 36.6288 -83.4350 207° Southwest 420 483 38,000  Level FlightAware ADS-B
Sun 03:20:31 PM 36.5752 -83.4695 207° Southwest 420 483 38,000  Level FlightAware ADS-B
Sun 03:21:01 PM 36.5225 -83.5032 207° Southwest 421 484 38,000  Level FlightAware ADS-B
Sun 03:21:32 PM 36.4689 -83.5375 207° Southwest 421 484 38,000  Level FlightAware ADS-B
Sun 03:22:02 PM 36.4164 -83.5710 207° Southwest 422 486 38,000  Level FlightAware ADS-B
Sun 03:22:33 PM 36.3630 -83.6050 207° Southwest 424 488 38,000  Level FlightAware ADS-B
Sun 03:23:05 PM 36.3079 -83.6400 207° Southwest 424 488 38,000  Level FlightAware ADS-B
Sun 03:23:35 PM 36.2552 -83.6735 207° Southwest 423 487 38,000  Level FlightAware ADS-B
Sun 03:24:12 PM 36.1904 -83.7145 207° Southwest 422 486 38,000  Level FlightAware ADS-B
Sun 03:24:43 PM 36.1375 -83.7482 207° Southwest 423 487 38,000  Level FlightAware ADS-B
Sun 03:25:13 PM 36.0850 -83.7813 207° Southwest 424 488 38,000  Level FlightAware ADS-B
Sun 03:25:44 PM 36.0309 -83.8154 207° Southwest 426 490 38,000  Level FlightAware ADS-B
Sun 03:26:25 PM 35.9603 -83.8597 207° Southwest 428 493 38,000  Level FlightAware ADS-B
Sun 03:26:32 PM 35.9458 -83.8679 205° Southwest 430 495 38,000  Level FlightAware ADS-B
Sun 03:26:49 PM 35.9135 -83.8834 201° Southwest 435 501 38,000  Level FlightAware ADS-B
Sun 03:27:12 PM 35.8701 -83.8999 197° South 440 506 38,000  Level FlightAware ADS-B
Sun 03:27:42 PM 35.8099 -83.9160 192° South 445 512 38,000  Level FlightAware ADS-B
Sun 03:28:12 PM 35.7496 -83.9315 192° South 442 509 38,000  Level FlightAware ADS-B
Sun 03:28:42 PM 35.6895 -83.9469 192° South 442 509 38,000  Level FlightAware ADS-B
Sun 03:29:13 PM 35.6276 -83.9622 191° South 439 505 38,000  Level FlightAware ADS-B
Sun 03:29:48 PM 35.5585 -83.9789 191° South 437 503 38,000  Level FlightAware ADS-B
Sun 03:30:20 PM 35.4950 -83.9943 191° South 437 503 38,000  Level FlightAware ADS-B
Sun 03:30:51 PM 35.4328 -84.0094 191° South 436 502 38,000  Level FlightAware ADS-B
Sun 03:31:22 PM 35.3723 -84.0239 191° South 437 503 38,000  Level FlightAware ADS-B
Sun 03:32:10 PM 35.2770 -84.0469 191° South 437 503 38,000  Level FlightAware ADS-B
Sun 03:32:43 PM 35.2109 -84.0629 191° South 437 503 38,000  Level FlightAware ADS-B
Sun 03:33:13 PM 35.1508 -84.0773 191° South 436 502 38,000  Level FlightAware ADS-B
Sun 03:33:53 PM 35.0741 -84.0955 191° South 437 503 38,000  Level FlightAware ADS-B
Sun 03:34:23 PM 35.0118 -84.1104 191° South 436 502 38,000  Level FlightAware ADS-B
Sun 03:35:19 PM 34.9021 -84.1367 191° South 437 503 38,000  Level FlightAware ADS-B
Sun 03:35:51 PM 34.8385 -84.1517 191° South 438 504 38,000  Level FlightAware ADS-B
Sun 03:36:21 PM 34.7780 -84.1661 191° South 436 502 38,000  Level FlightAware ADS-B
Sun 03:36:51 PM 34.7182 -84.1803 191° South 434 499 38,000  Level FlightAware ADS-B
Sun 03:37:21 PM 34.6589 -84.1943 191° South 433 498 38,000  Level FlightAware ADS-B
Sun 03:38:06 PM 34.5718 -84.2149 191° South 429 494 38,000  Level FlightAware ADS-B
Sun 03:38:36 PM 34.5136 -84.2287 191° South 429 494 38,000  Level FlightAware ADS-B
Sun 03:39:07 PM 34.4534 -84.2429 191° South 428 493 38,000 -98 Level FlightAware ADS-B
Sun 03:39:37 PM 34.3953 -84.2566 191° South 430 495 37,900 -369 Descending FlightAware ADS-B
Sun 03:40:12 PM 34.3259 -84.2730 191° South 430 495 37,600 -455 Descending FlightAware ADS-B
Sun 03:40:43 PM 34.2657 -84.2870 191° South 428 493 37,400 -444 Descending FlightAware ADS-B
Sun 03:41:33 PM 34.1684 -84.3098 191° South 424 488 37,000 -264 Descending FlightAware ADS-B
Sun 03:42:14 PM 34.0906 -84.3280 191° South 425 489 37,000  Level FlightAware ADS-B
Sun 03:42:47 PM 34.0266 -84.3429 191° South 422 486 37,000  Level FlightAware ADS-B
Sun 03:43:17 PM 33.9693 -84.3562 191° South 420 483 37,000  Level FlightAware ADS-B
Sun 03:43:48 PM 33.9112 -84.3698 191° South 419 482 37,000  Level FlightAware ADS-B
Sun 03:44:18 PM 33.8536 -84.3832 191° South 418 481 37,000  Level FlightAware ADS-B
Sun 03:44:50 PM 33.7922 -84.3974 191° South 417 480 37,000  Level FlightAware ADS-B
Sun 03:45:21 PM 33.7332 -84.4111 191° South 416 479 37,000  Level FlightAware ADS-B
Sun 03:45:52 PM 33.6764 -84.4242 191° South 415 478 37,000  Level FlightAware ADS-B
Sun 03:46:14 PM 33.6325 -84.4315 188° South 423 487 37,000  Level FlightAware ADS-B
Sun 03:47:09 PM 33.5236 -84.4326 180° South 431 496 37,000  Level FlightAware ADS-B
Sun 03:47:39 PM 33.4636 -84.4316 179° South 431 496 37,000  Level FlightAware ADS-B
Sun 03:48:10 PM 33.4050 -84.4305 179° South 433 498 37,000  Level FlightAware ADS-B
Sun 03:48:44 PM 33.3350 -84.4291 179° South 433 498 37,000  Level FlightAware ADS-B
Sun 03:49:16 PM 33.2696 -84.4278 179° South 432 497 37,000  Level FlightAware ADS-B
Sun 03:50:05 PM 33.1730 -84.4260 179° South 431 496 37,000  Level FlightAware ADS-B
Sun 03:50:39 PM 33.1050 -84.4240 179° South 432 497 37,000  Level FlightAware ADS-B
Sun 03:51:16 PM 33.0320 -84.4230 179° South 433 498 37,000  Level FlightAware ADS-B
Sun 03:52:15 PM 32.9170 -84.4210 179° South 432 497 37,000  Level FlightAware ADS-B
Sun 03:52:49 PM 32.8440 -84.4190 179° South 431 496 37,000  Level FlightAware ADS-B
Sun 03:53:19 PM 32.7860 -84.4180 179° South 432 497 37,000  Level FlightAware ADS-B
Sun 03:53:53 PM 32.7160 -84.4170 179° South 432 497 37,000  Level FlightAware ADS-B
Sun 03:54:35 PM 32.6330 -84.4150 179° South 434 499 37,000  Level FlightAware ADS-B
Sun 03:55:06 PM 32.5710 -84.4140 179° South 434 499 37,000  Level FlightAware ADS-B
Sun 03:55:47 PM 32.4890 -84.4120 179° South 435 501 37,000  Level FlightAware ADS-B
Sun 03:56:23 PM 32.4150 -84.4100 179° South 435 501 37,000  Level FlightAware ADS-B
Sun 03:56:53 PM 32.3540 -84.4090 179° South 436 502 37,000  Level FlightAware ADS-B
Sun 03:57:29 PM 32.2820 -84.4080 179° South 437 503 37,000  Level FlightAware ADS-B
Sun 03:58:02 PM 32.2180 -84.4070 179° South 437 503 37,000  Level FlightAware ADS-B
Sun 03:59:20 PM 32.0620 -84.4040 179° South 434 499 37,000  Level FlightAware ADS-B
Sun 04:00:02 PM 31.9740 -84.4020 179° South 433 498 37,000  Level FlightAware ADS-B
Sun 04:00:35 PM 31.9080 -84.4000 179° South 434 499 37,000  Level FlightAware ADS-B
Sun 04:01:14 PM 31.8300 -84.3790 167° South 473 544 37,000  Level FlightAware ADS-B
Sun 04:01:44 PM 31.7690 -84.3450 155° Southeast 473 544 37,000  Level FlightAware ADS-B
Sun 04:02:19 PM 31.7010 -84.3060 154° Southeast 469 540 37,000  Level FlightAware ADS-B
Sun 04:02:50 PM 31.6410 -84.2730 155° Southeast 468 539 37,000  Level FlightAware ADS-B
Sun 04:03:33 PM 31.5560 -84.2260 155° Southeast 461 531 37,000  Level FlightAware ADS-B
Sun 04:04:10 PM 31.4830 -84.1950 160° South 456 525 37,000  Level FlightAware ADS-B
Sun 04:04:53 PM 31.3960 -84.1590 161° South 457 526 37,000  Level FlightAware ADS-B
Sun 04:05:54 PM 31.2750 -84.1070 160° South 460 529 37,000  Level FlightAware ADS-B
Sun 04:06:33 PM 31.1970 -84.0740 160° South 461 531 37,000  Level FlightAware ADS-B
Sun 04:07:33 PM 31.0760 -84.0220 160° South 462 532 37,000  Level FlightAware ADS-B
Sun 04:08:32 PM 30.9708 -83.9772 160° South 463 533 37,000  Level FlightAware ADS-B (KONZ)
Sun 04:09:02 PM 30.9012 -83.9476 160° South 463 533 37,000  Level FlightAware ADS-B (KONZ)
Sun 04:09:34 PM 30.8311 -83.9179 160° South 463 533 37,000  Level FlightAware ADS-B (KONZ)
Sun 04:10:23 PM 30.7339 -83.8768 160° South 463 533 37,000  Level FlightAware ADS-B (KONZ)
Sun 04:11:01 PM 30.6574 -83.8444 160° South 462 532 37,000  Level FlightAware ADS-B (KONZ)
Sun 04:11:34 PM 30.5911 -83.8165 160° South 462 532 37,000  Level FlightAware ADS-B (KONZ)
Sun 04:12:13 PM 30.5116 -83.7830 160° South 464 534 37,000  Level FlightAware ADS-B (KONZ)
Sun 04:12:44 PM 30.4492 -83.7568 160° South 464 534 37,000  Level FlightAware ADS-B (KONZ)
Sun 04:13:24 PM 30.3732 -83.7249 160° South 463 533 37,000  Level FlightAware ADS-B (KONZ)
Sun 04:14:16 PM 30.2630 -83.6790 160° South 461 531 37,000  Level FlightAware ADS-B
Sun 04:15:16 PM 30.1430 -83.6290 160° South 463 533 37,000  Level FlightAware ADS-B
Sun 04:15:52 PM 30.0690 -83.5980 160° South 462 532 37,000  Level FlightAware ADS-B
Sun 04:16:24 PM 30.0060 -83.5720 160° South 463 533 37,000  Level FlightAware ADS-B
Sun 04:16:52 PM 29.9500 -83.5480 160° South 462 532 37,000  Level FlightAware ADS-B
Sun 04:17:57 PM 29.8190 -83.4940 160° South 455 524 37,000  Level FlightAware ADS-B
Sun 04:18:31 PM 29.7540 -83.4670 160° South 453 521 37,000  Level FlightAware ADS-B
Sun 04:19:07 PM 29.6800 -83.4370 161° South 451 519 37,000  Level FlightAware ADS-B
Sun 04:19:50 PM 29.5970 -83.4020 160° South 453 521 37,000  Level FlightAware ADS-B
Sun 04:20:18 PM 29.5400 -83.3790 161° South 457 526 37,000  Level FlightAware ADS-B
Sun 04:20:49 PM 29.4800 -83.3540 160° South 457 526 37,000  Level FlightAware ADS-B
Sun 04:21:54 PM 29.3510 -83.3010 160° South 458 527 37,000  Level FlightAware ADS-B
Sun 04:22:12 PM 29.3160 -83.2870 161° South 458 527 37,000  Level FlightAware ADS-B
Sun 04:23:20 PM 29.1810 -83.2310 160° South 459 528 37,000  Level FlightAware ADS-B
Sun 04:24:20 PM 29.0600 -83.1820 161° South 449 517 37,000  Level FlightAware ADS-B
Sun 04:24:51 PM 29.0000 -83.1580 161° South 449 517 37,000  Level FlightAware ADS-B
Sun 04:25:50 PM 28.8790 -83.1080 160° South 447 514 37,000  Level FlightAware ADS-B
Sun 04:26:31 PM 28.8000 -83.0760 160° South 446 513 37,000  Level FlightAware ADS-B
Sun 04:27:11 PM 28.7210 -83.0440 160° South 445 512 37,000  Level FlightAware ADS-B
Sun 04:27:41 PM 28.6620 -83.0200 160° South 445 512 37,000  Level FlightAware ADS-B
Sun 04:28:16 PM 28.5910 -82.9920 161° South 447 514 37,000  Level FlightAware ADS-B
Sun 04:28:46 PM 28.5320 -82.9680 160° South 447 514 37,000  Level FlightAware ADS-B
Sun 04:29:46 PM 28.4120 -82.9200 161° South 446 513 37,000  Level FlightAware ADS-B
Sun 04:30:41 PM 28.3060 -82.8770 160° South 446 513 37,000  Level FlightAware ADS-B
Sun 04:31:51 PM 28.1660 -82.8210 161° South 447 514 37,000  Level FlightAware ADS-B
Sun 04:32:31 PM 28.0860 -82.7890 161° South 446 513 37,000  Level FlightAware ADS-B
Sun 04:33:40 PM 27.9480 -82.7340 161° South 443 510 37,000  Level FlightAware ADS-B
Sun 04:34:11 PM 27.8890 -82.7100 160° South 444 511 37,000  Level FlightAware ADS-B
Sun 04:34:46 PM 27.8190 -82.6820 161° South 446 513 37,000  Level FlightAware ADS-B
Sun 04:35:30 PM 27.7300 -82.6470 161° South 448 516 37,000  Level FlightAware ADS-B
Sun 04:36:15 PM 27.6400 -82.6300 171° South 435 501 37,000  Level FlightAware ADS-B
Sun 04:37:07 PM 27.5370 -82.6270 179° South 438 504 37,000  Level FlightAware ADS-B
Sun 04:38:17 PM 27.3950 -82.6220 178° South 432 497 37,000  Level FlightAware ADS-B
Sun 04:38:58 PM 27.3100 -82.6200 179° South 431 496 37,000  Level FlightAware ADS-B
Sun 04:39:27 PM 27.2510 -82.6180 178° South 438 504 37,000  Level FlightAware ADS-B
Sun 04:40:03 PM 27.1770 -82.6160 179° South 432 497 37,000  Level FlightAware ADS-B
Sun 04:40:58 PM 27.0650 -82.6120 178° South 434 499 37,000  Level FlightAware ADS-B
Sun 04:41:14 PM 27.0350 -82.6110 178° South 434 499 37,000  Level FlightAware ADS-B
Sun 04:41:48 PM 26.9650 -82.6090 179° South 434 499 37,000  Level FlightAware ADS-B
Sun 04:42:22 PM 26.8910 -82.6070 179° South 433 498 37,000  Level FlightAware ADS-B
Sun 04:43:02 PM 26.8130 -82.6040 178° South 434 499 37,000  Level FlightAware ADS-B
Sun 04:43:52 PM 26.7070 -82.6010 179° South 436 502 37,000  Level FlightAware ADS-B
Sun 04:44:23 PM 26.6450 -82.5990 178° South 435 501 37,000  Level FlightAware ADS-B
Sun 04:45:18 PM 26.5350 -82.5960 179° South 433 498 37,000  Level FlightAware ADS-B
Sun 04:45:53 PM 26.4620 -82.5930 178° South 432 497 37,000  Level FlightAware ADS-B
Sun 04:46:58 PM 26.3360 -82.5900 179° South 431 496 37,000  Level FlightAware ADS-B
Sun 04:47:33 PM 26.2580 -82.5870 178° South 432 497 37,000  Level FlightAware ADS-B
Sun 04:48:22 PM 26.1610 -82.5840 178° South 432 497 37,000  Level FlightAware ADS-B
Sun 04:49:23 PM 26.0320 -82.5800 178° South 439 505 37,000  Level FlightAware ADS-B
Sun 04:49:55 PM 25.9690 -82.5780 178° South 439 505 37,000  Level FlightAware ADS-B
Sun 04:50:49 PM 25.8570 -82.5750 179° South 442 509 37,000  Level FlightAware ADS-B
Sun 04:51:29 PM 25.7740 -82.5720 178° South 442 509 37,000  Level FlightAware ADS-B
Sun 04:52:01 PM 25.7080 -82.5700 178° South 442 509 37,000  Level FlightAware ADS-B
Sun 04:52:34 PM 25.6420 -82.5680 178° South 442 509 37,000  Level FlightAware ADS-B
Sun 04:53:02 PM 25.5840 -82.5670 179° South 442 509 37,000 -353 Level FlightAware ADS-B
Sun 04:53:42 PM 25.5010 -82.5640 178° South 446 513 36,600 -848 Descending FlightAware ADS-B
Sun 04:54:41 PM 25.3790 -82.5600 178° South 447 514 35,600 -1,295 Descending FlightAware ADS-B
Sun 04:55:10 PM 25.3220 -82.5590 179° South 449 517 34,700 -2,000 Descending FlightAware ADS-B
Sun 04:56:08 PM 25.1980 -82.5550 178° South 443 510 32,700 -1,745 Descending FlightAware ADS-B
Sun 04:57:00 PM 25.0930 -82.5520 179° South 445 512 31,500 -1,213 Descending FlightAware ADS-B
Sun 04:57:37 PM 25.0160 -82.5490 178° South 448 516 30,900 -957 Descending FlightAware ADS-B
Sun 04:58:09 PM 24.9500 -82.5470 178° South 448 516 30,400 -1,023 Descending FlightAware ADS-B
Sun 04:59:05 PM 24.8350 -82.5440 179° South 438 504 29,400 -1,009 Descending FlightAware ADS-B
Sun 04:59:56 PM 24.7320 -82.5410 178° South 431 496 28,600 -940 Descending FlightAware ADS-B
Sun 05:00:28 PM 24.6700 -82.5390 178° South 431 496 28,100 -1,023 Descending FlightAware ADS-B
Sun 05:01:24 PM 24.5560 -82.5350 178° South 424 488 27,100 -973 Descending FlightAware ADS-B
Sun 05:01:42 PM 24.5260 -82.5340 178° South 420 483 26,900 -918 Descending FlightAware ADS-B
Sun 05:02:49 PM 24.4030 -82.5310 179° South 404 465 25,800 -629 Descending FlightAware ADS-B
Sun 05:03:27 PM 24.3430 -82.5290 178° South 404 465 25,800  Level FlightAware ADS-B
Sun 05:04:01 PM 24.2890 -82.5260 177° South 404 465 25,800  Level FlightAware ADS-B
Sun 05:04:38 PM 24.2300 -82.5240 178° South 404 465 25,800  Level FlightAware ADS-B
Sun 05:05:14 PM 24.1730 -82.5220 178° South 404 465 25,800  Level FlightAware ADS-B
Sun 05:06:02 PM 24.0960 -82.5190 178° South 404 465 25,800  Level FlightAware ADS-B
Sun 05:06:39 PM 24.0380 -82.5170 178° South 404 465 25,800  Level FlightAware ADS-B
Sun 05:14:00 PM 23.1686 -82.4167 180° South  Level FlightAware Approximate
Sun 05:15:00 PM 23.0510 -82.4002 170° South  Level FlightAware Approximate
Sun 05:16:00 PM 22.9891 -82.4091 180° South  Level Estimated
Sun 05:17:00 PM 22.9891 -82.4091 180° South  Level Estimated
Sun 05:18:00 PM 22.9891 -82.4091 180° South  Level Estimated
Sun 05:19:00 PM 22.9891 -82.4091 180° South  Level Estimated
Sun 05:20:00 PM 22.9891 -82.4091 180° South  Level Estimated
Sun 05:21:00 PM 22.9891 -82.4091 180° South  Level Estimated
Sun 05:22:00 PM 22.9891 -82.4091 180° South  Level Estimated
Sun 05:23:00 PM 22.9891 -82.4091 180° South  Level Estimated
Sun 05:24:00 PM 22.9891 -82.4091 180° South  Level Estimated
Sun 05:25:00 PM 22.9891 -82.4091 180° South  Level Estimated
Sun 05:26:00 PM 22.9891 -82.4091 180° South  Level Estimated
Sun 05:27:00 PM 22.9891 -82.4091 180° South  Level Estimated
Sun 05:28:00 PM 22.9891 -82.4091 180° South  Level Estimated
Sun 05:29:00 PM 22.9891 -82.4091 180° South  Level Estimated
Sun 05:30:00 PM 22.9891 -82.4091 180° South  Level Estimated
Sun 05:31:00 PM 22.9891 -82.4091 180° South  Level Estimated
Sun 05:32:00 PM 22.9891 -82.4091 180° South  Level Estimated
Sun 05:33:00 PM 22.9891 -82.4091 180° South  Level Estimated
Sun 05:34:00 PM 22.9891 -82.4091 180° South  Level Estimated
Sun 05:35:00 PM 22.9891 -82.4091 180° South  Level Estimated
Sun 05:36:00 PM 22.9891 -82.4091 180° South  Level Estimated
Sun 05:37:00 PM 22.9891 -82.4091 180° South  Level Estimated

Login

Don't have an account? Register now (free) for customized features, flight alerts, and more!